<?xml version="1.0" encoding="UTF-8" standalone="no" ?>
<gpx xmlns="http://www.topografix.com/GPX/1/1" xmlns:xsi="http://www.w3.org/2001/XMLSchema-instance" xsi:schemaLocation="http://www.topografix.com/GPX/1/1 http://www.topografix.com/GPX/1/1/gpx.xsd" version="1.1" creator="VisuGPX - https://www.visugpx.com">
  <metadata>
    <name>sous le danay</name>
    <desc><![CDATA[premiere neige]]></desc>
  </metadata>
  <trk>
    <name><![CDATA[Sous le Danay deplacement]]></name>
    <trkseg>
      <trkpt lat="45.90856" lon="6.41917">
        <ele>1028.267334</ele>
        <time>2010-11-27T14:27:34Z</time>
      </trkpt>
      <trkpt lat="45.9085" lon="6.41917">
        <ele>1031.631836</ele>
        <time>2010-11-27T14:27:44Z</time>
      </trkpt>
      <trkpt lat="45.90844" lon="6.41917">
        <ele>1033.07373</ele>
        <time>2010-11-27T14:27:53Z</time>
      </trkpt>
      <trkpt lat="45.90841" lon="6.41919">
        <ele>1034.996582</ele>
        <time>2010-11-27T14:28:03Z</time>
      </trkpt>
      <trkpt lat="45.90836" lon="6.41919">
        <ele>1035.477051</ele>
        <time>2010-11-27T14:28:09Z</time>
      </trkpt>
      <trkpt lat="45.90834" lon="6.41919">
        <ele>1035.477051</ele>
        <time>2010-11-27T14:28:16Z</time>
      </trkpt>
      <trkpt lat="45.90828" lon="6.41918">
        <ele>1036.919189</ele>
        <time>2010-11-27T14:28:32Z</time>
      </trkpt>
      <trkpt lat="45.9082" lon="6.41918">
        <ele>1037.399902</ele>
        <time>2010-11-27T14:28:39Z</time>
      </trkpt>
      <trkpt lat="45.90813" lon="6.41919">
        <ele>1037.399902</ele>
        <time>2010-11-27T14:28:49Z</time>
      </trkpt>
      <trkpt lat="45.90803" lon="6.41922">
        <ele>1038.361328</ele>
        <time>2010-11-27T14:28:59Z</time>
      </trkpt>
      <trkpt lat="45.90799" lon="6.41924">
        <ele>1038.361328</ele>
        <time>2010-11-27T14:29:05Z</time>
      </trkpt>
      <trkpt lat="45.90791" lon="6.41929">
        <ele>1038.842041</ele>
        <time>2010-11-27T14:29:14Z</time>
      </trkpt>
      <trkpt lat="45.90787" lon="6.41933">
        <ele>1039.32251</ele>
        <time>2010-11-27T14:29:20Z</time>
      </trkpt>
      <trkpt lat="45.90781" lon="6.41936">
        <ele>1040.764404</ele>
        <time>2010-11-27T14:29:28Z</time>
      </trkpt>
      <trkpt lat="45.90773" lon="6.41943">
        <ele>1041.245117</ele>
        <time>2010-11-27T14:29:39Z</time>
      </trkpt>
      <trkpt lat="45.90765" lon="6.41948">
        <ele>1042.206543</ele>
        <time>2010-11-27T14:29:49Z</time>
      </trkpt>
      <trkpt lat="45.90761" lon="6.41952">
        <ele>1042.206543</ele>
        <time>2010-11-27T14:29:56Z</time>
      </trkpt>
      <trkpt lat="45.90757" lon="6.41956">
        <ele>1043.167725</ele>
        <time>2010-11-27T14:30:03Z</time>
      </trkpt>
      <trkpt lat="45.90755" lon="6.41959">
        <ele>1044.12915</ele>
        <time>2010-11-27T14:30:10Z</time>
      </trkpt>
      <trkpt lat="45.90754" lon="6.41963">
        <ele>1044.609619</ele>
        <time>2010-11-27T14:30:16Z</time>
      </trkpt>
      <trkpt lat="45.90759" lon="6.41962">
        <ele>1046.051758</ele>
        <time>2010-11-27T14:30:30Z</time>
      </trkpt>
      <trkpt lat="45.90762" lon="6.4196">
        <ele>1047.974365</ele>
        <time>2010-11-27T14:30:39Z</time>
      </trkpt>
      <trkpt lat="45.90768" lon="6.41961">
        <ele>1048.935547</ele>
        <time>2010-11-27T14:30:49Z</time>
      </trkpt>
      <trkpt lat="45.9077" lon="6.41958">
        <ele>1050.858154</ele>
        <time>2010-11-27T14:31:00Z</time>
      </trkpt>
      <trkpt lat="45.90778" lon="6.4196">
        <ele>1052.781006</ele>
        <time>2010-11-27T14:31:09Z</time>
      </trkpt>
      <trkpt lat="45.90783" lon="6.41961">
        <ele>1054.223145</ele>
        <time>2010-11-27T14:31:19Z</time>
      </trkpt>
      <trkpt lat="45.90788" lon="6.41962">
        <ele>1057.587646</ele>
        <time>2010-11-27T14:31:40Z</time>
      </trkpt>
      <trkpt lat="45.90788" lon="6.4197">
        <ele>1058.548828</ele>
        <time>2010-11-27T14:31:48Z</time>
      </trkpt>
      <trkpt lat="45.90784" lon="6.41976">
        <ele>1059.990723</ele>
        <time>2010-11-27T14:31:58Z</time>
      </trkpt>
      <trkpt lat="45.9078" lon="6.41986">
        <ele>1061.432861</ele>
        <time>2010-11-27T14:32:13Z</time>
      </trkpt>
      <trkpt lat="45.90776" lon="6.4199">
        <ele>1061.913574</ele>
        <time>2010-11-27T14:32:25Z</time>
      </trkpt>
      <trkpt lat="45.90772" lon="6.41993">
        <ele>1062.874756</ele>
        <time>2010-11-27T14:32:38Z</time>
      </trkpt>
      <trkpt lat="45.90771" lon="6.41996">
        <ele>1064.31665</ele>
        <time>2010-11-27T14:32:46Z</time>
      </trkpt>
      <trkpt lat="45.90773" lon="6.41994">
        <ele>1066.239258</ele>
        <time>2010-11-27T14:32:54Z</time>
      </trkpt>
      <trkpt lat="45.9078" lon="6.41996">
        <ele>1067.681152</ele>
        <time>2010-11-27T14:33:10Z</time>
      </trkpt>
      <trkpt lat="45.90779" lon="6.42">
        <ele>1070.084717</ele>
        <time>2010-11-27T14:33:20Z</time>
      </trkpt>
      <trkpt lat="45.90781" lon="6.41996">
        <ele>1071.526611</ele>
        <time>2010-11-27T14:33:29Z</time>
      </trkpt>
      <trkpt lat="45.90779" lon="6.42002">
        <ele>1072.96875</ele>
        <time>2010-11-27T14:33:39Z</time>
      </trkpt>
      <trkpt lat="45.90779" lon="6.42006">
        <ele>1073.929932</ele>
        <time>2010-11-27T14:33:48Z</time>
      </trkpt>
      <trkpt lat="45.90784" lon="6.42007">
        <ele>1075.371826</ele>
        <time>2010-11-27T14:33:58Z</time>
      </trkpt>
      <trkpt lat="45.90789" lon="6.42004">
        <ele>1076.333252</ele>
        <time>2010-11-27T14:34:08Z</time>
      </trkpt>
      <trkpt lat="45.90794" lon="6.42">
        <ele>1077.294678</ele>
        <time>2010-11-27T14:34:19Z</time>
      </trkpt>
      <trkpt lat="45.90795" lon="6.42001">
        <ele>1078.255859</ele>
        <time>2010-11-27T14:34:26Z</time>
      </trkpt>
      <trkpt lat="45.90796" lon="6.42008">
        <ele>1079.697754</ele>
        <time>2010-11-27T14:34:34Z</time>
      </trkpt>
      <trkpt lat="45.90795" lon="6.42013">
        <ele>1080.178467</ele>
        <time>2010-11-27T14:34:43Z</time>
      </trkpt>
      <trkpt lat="45.9079" lon="6.4202">
        <ele>1081.139893</ele>
        <time>2010-11-27T14:34:51Z</time>
      </trkpt>
      <trkpt lat="45.90791" lon="6.4202">
        <ele>1082.101074</ele>
        <time>2010-11-27T14:34:59Z</time>
      </trkpt>
      <trkpt lat="45.90795" lon="6.42015">
        <ele>1083.062256</ele>
        <time>2010-11-27T14:35:09Z</time>
      </trkpt>
      <trkpt lat="45.90798" lon="6.42015">
        <ele>1084.504639</ele>
        <time>2010-11-27T14:35:17Z</time>
      </trkpt>
      <trkpt lat="45.90801" lon="6.42016">
        <ele>1086.907715</ele>
        <time>2010-11-27T14:35:27Z</time>
      </trkpt>
      <trkpt lat="45.90802" lon="6.42025">
        <ele>1088.349854</ele>
        <time>2010-11-27T14:35:37Z</time>
      </trkpt>
      <trkpt lat="45.90801" lon="6.4203">
        <ele>1088.830566</ele>
        <time>2010-11-27T14:35:46Z</time>
      </trkpt>
      <trkpt lat="45.90794" lon="6.42036">
        <ele>1090.272461</ele>
        <time>2010-11-27T14:35:58Z</time>
      </trkpt>
      <trkpt lat="45.90793" lon="6.42039">
        <ele>1091.714355</ele>
        <time>2010-11-27T14:36:05Z</time>
      </trkpt>
      <trkpt lat="45.90791" lon="6.42041">
        <ele>1092.675781</ele>
        <time>2010-11-27T14:36:13Z</time>
      </trkpt>
      <trkpt lat="45.90787" lon="6.42044">
        <ele>1093.636963</ele>
        <time>2010-11-27T14:36:24Z</time>
      </trkpt>
      <trkpt lat="45.90783" lon="6.42043">
        <ele>1095.078857</ele>
        <time>2010-11-27T14:36:36Z</time>
      </trkpt>
      <trkpt lat="45.90782" lon="6.42046">
        <ele>1096.040283</ele>
        <time>2010-11-27T14:36:45Z</time>
      </trkpt>
      <trkpt lat="45.90786" lon="6.42049">
        <ele>1096.040283</ele>
        <time>2010-11-27T14:36:54Z</time>
      </trkpt>
      <trkpt lat="45.90793" lon="6.42051">
        <ele>1096.520996</ele>
        <time>2010-11-27T14:37:04Z</time>
      </trkpt>
      <trkpt lat="45.9079" lon="6.42046">
        <ele>1097.001465</ele>
        <time>2010-11-27T14:37:13Z</time>
      </trkpt>
      <trkpt lat="45.90788" lon="6.4204">
        <ele>1098.924072</ele>
        <time>2010-11-27T14:37:24Z</time>
      </trkpt>
      <trkpt lat="45.90789" lon="6.42048">
        <ele>1101.327637</ele>
        <time>2010-11-27T14:37:33Z</time>
      </trkpt>
      <trkpt lat="45.90793" lon="6.42049">
        <ele>1102.769531</ele>
        <time>2010-11-27T14:37:42Z</time>
      </trkpt>
      <trkpt lat="45.90789" lon="6.42039">
        <ele>1104.21167</ele>
        <time>2010-11-27T14:37:54Z</time>
      </trkpt>
      <trkpt lat="45.9079" lon="6.42047">
        <ele>1105.653564</ele>
        <time>2010-11-27T14:38:05Z</time>
      </trkpt>
      <trkpt lat="45.9079" lon="6.4205">
        <ele>1106.134033</ele>
        <time>2010-11-27T14:38:13Z</time>
      </trkpt>
      <trkpt lat="45.90792" lon="6.42045">
        <ele>1107.576172</ele>
        <time>2010-11-27T14:38:22Z</time>
      </trkpt>
      <trkpt lat="45.90799" lon="6.42044">
        <ele>1110.459961</ele>
        <time>2010-11-27T14:38:33Z</time>
      </trkpt>
      <trkpt lat="45.90799" lon="6.42047">
        <ele>1111.9021</ele>
        <time>2010-11-27T14:38:40Z</time>
      </trkpt>
      <trkpt lat="45.90793" lon="6.42049">
        <ele>1112.863281</ele>
        <time>2010-11-27T14:38:49Z</time>
      </trkpt>
      <trkpt lat="45.90791" lon="6.42056">
        <ele>1113.824463</ele>
        <time>2010-11-27T14:38:59Z</time>
      </trkpt>
      <trkpt lat="45.90786" lon="6.4206">
        <ele>1114.785889</ele>
        <time>2010-11-27T14:39:08Z</time>
      </trkpt>
      <trkpt lat="45.90779" lon="6.42062">
        <ele>1115.747314</ele>
        <time>2010-11-27T14:39:16Z</time>
      </trkpt>
      <trkpt lat="45.90775" lon="6.42067">
        <ele>1117.189453</ele>
        <time>2010-11-27T14:39:25Z</time>
      </trkpt>
      <trkpt lat="45.90773" lon="6.42072">
        <ele>1119.592773</ele>
        <time>2010-11-27T14:39:36Z</time>
      </trkpt>
      <trkpt lat="45.90776" lon="6.4208">
        <ele>1120.553955</ele>
        <time>2010-11-27T14:39:46Z</time>
      </trkpt>
      <trkpt lat="45.90777" lon="6.42084">
        <ele>1120.073242</ele>
        <time>2010-11-27T14:39:55Z</time>
      </trkpt>
      <trkpt lat="45.90778" lon="6.42086">
        <ele>1121.515137</ele>
        <time>2010-11-27T14:40:04Z</time>
      </trkpt>
      <trkpt lat="45.90777" lon="6.42088">
        <ele>1122.957275</ele>
        <time>2010-11-27T14:40:11Z</time>
      </trkpt>
      <trkpt lat="45.90774" lon="6.42091">
        <ele>1124.39917</ele>
        <time>2010-11-27T14:40:20Z</time>
      </trkpt>
      <trkpt lat="45.90772" lon="6.42093">
        <ele>1125.841064</ele>
        <time>2010-11-27T14:40:28Z</time>
      </trkpt>
      <trkpt lat="45.90776" lon="6.42094">
        <ele>1127.283203</ele>
        <time>2010-11-27T14:40:39Z</time>
      </trkpt>
      <trkpt lat="45.9078" lon="6.42095">
        <ele>1128.244385</ele>
        <time>2010-11-27T14:40:48Z</time>
      </trkpt>
      <trkpt lat="45.90784" lon="6.42098">
        <ele>1128.725098</ele>
        <time>2010-11-27T14:40:56Z</time>
      </trkpt>
      <trkpt lat="45.90785" lon="6.421">
        <ele>1129.686279</ele>
        <time>2010-11-27T14:41:03Z</time>
      </trkpt>
      <trkpt lat="45.90784" lon="6.42102">
        <ele>1131.128418</ele>
        <time>2010-11-27T14:41:10Z</time>
      </trkpt>
      <trkpt lat="45.9078" lon="6.42105">
        <ele>1132.089844</ele>
        <time>2010-11-27T14:41:18Z</time>
      </trkpt>
      <trkpt lat="45.90777" lon="6.42106">
        <ele>1133.531738</ele>
        <time>2010-11-27T14:41:28Z</time>
      </trkpt>
      <trkpt lat="45.90777" lon="6.42108">
        <ele>1134.973877</ele>
        <time>2010-11-27T14:41:39Z</time>
      </trkpt>
      <trkpt lat="45.90771" lon="6.42108">
        <ele>1136.415771</ele>
        <time>2010-11-27T14:41:51Z</time>
      </trkpt>
      <trkpt lat="45.90767" lon="6.42107">
        <ele>1137.857666</ele>
        <time>2010-11-27T14:42:01Z</time>
      </trkpt>
      <trkpt lat="45.90764" lon="6.42108">
        <ele>1139.780273</ele>
        <time>2010-11-27T14:42:12Z</time>
      </trkpt>
      <trkpt lat="45.90766" lon="6.42113">
        <ele>1140.741455</ele>
        <time>2010-11-27T14:42:23Z</time>
      </trkpt>
      <trkpt lat="45.90762" lon="6.42115">
        <ele>1141.702881</ele>
        <time>2010-11-27T14:42:32Z</time>
      </trkpt>
      <trkpt lat="45.90761" lon="6.42121">
        <ele>1143.144775</ele>
        <time>2010-11-27T14:42:42Z</time>
      </trkpt>
      <trkpt lat="45.90764" lon="6.4212">
        <ele>1143.625488</ele>
        <time>2010-11-27T14:42:49Z</time>
      </trkpt>
      <trkpt lat="45.90765" lon="6.42123">
        <ele>1145.548096</ele>
        <time>2010-11-27T14:42:58Z</time>
      </trkpt>
      <trkpt lat="45.90762" lon="6.42129">
        <ele>1146.509521</ele>
        <time>2010-11-27T14:43:09Z</time>
      </trkpt>
      <trkpt lat="45.90765" lon="6.42127">
        <ele>1148.432129</ele>
        <time>2010-11-27T14:43:17Z</time>
      </trkpt>
      <trkpt lat="45.9077" lon="6.42125">
        <ele>1149.393555</ele>
        <time>2010-11-27T14:43:28Z</time>
      </trkpt>
      <trkpt lat="45.90774" lon="6.42122">
        <ele>1151.796875</ele>
        <time>2010-11-27T14:43:39Z</time>
      </trkpt>
      <trkpt lat="45.90774" lon="6.42126">
        <ele>1152.758057</ele>
        <time>2010-11-27T14:43:48Z</time>
      </trkpt>
      <trkpt lat="45.90773" lon="6.42133">
        <ele>1153.719482</ele>
        <time>2010-11-27T14:44:00Z</time>
      </trkpt>
      <trkpt lat="45.90776" lon="6.4213">
        <ele>1154.680664</ele>
        <time>2010-11-27T14:44:09Z</time>
      </trkpt>
      <trkpt lat="45.9078" lon="6.42127">
        <ele>1155.161377</ele>
        <time>2010-11-27T14:44:18Z</time>
      </trkpt>
      <trkpt lat="45.90779" lon="6.42132">
        <ele>1156.603271</ele>
        <time>2010-11-27T14:44:28Z</time>
      </trkpt>
      <trkpt lat="45.90778" lon="6.42138">
        <ele>1158.04541</ele>
        <time>2010-11-27T14:44:38Z</time>
      </trkpt>
      <trkpt lat="45.90776" lon="6.42143">
        <ele>1159.006592</ele>
        <time>2010-11-27T14:44:45Z</time>
      </trkpt>
      <trkpt lat="45.90774" lon="6.42151">
        <ele>1160.448486</ele>
        <time>2010-11-27T14:44:56Z</time>
      </trkpt>
      <trkpt lat="45.90776" lon="6.42157">
        <ele>1161.409912</ele>
        <time>2010-11-27T14:45:05Z</time>
      </trkpt>
      <trkpt lat="45.90779" lon="6.42165">
        <ele>1162.371094</ele>
        <time>2010-11-27T14:45:16Z</time>
      </trkpt>
      <trkpt lat="45.90782" lon="6.42173">
        <ele>1162.851807</ele>
        <time>2010-11-27T14:45:27Z</time>
      </trkpt>
      <trkpt lat="45.90783" lon="6.42181">
        <ele>1164.293945</ele>
        <time>2010-11-27T14:45:39Z</time>
      </trkpt>
      <trkpt lat="45.90784" lon="6.42188">
        <ele>1166.216553</ele>
        <time>2010-11-27T14:45:50Z</time>
      </trkpt>
      <trkpt lat="45.90784" lon="6.42193">
        <ele>1167.658447</ele>
        <time>2010-11-27T14:45:59Z</time>
      </trkpt>
      <trkpt lat="45.90786" lon="6.42193">
        <ele>1168.619873</ele>
        <time>2010-11-27T14:46:07Z</time>
      </trkpt>
      <trkpt lat="45.90789" lon="6.42198">
        <ele>1171.023193</ele>
        <time>2010-11-27T14:46:16Z</time>
      </trkpt>
      <trkpt lat="45.90791" lon="6.42204">
        <ele>1171.984375</ele>
        <time>2010-11-27T14:46:26Z</time>
      </trkpt>
      <trkpt lat="45.90793" lon="6.4221">
        <ele>1173.906982</ele>
        <time>2010-11-27T14:46:36Z</time>
      </trkpt>
      <trkpt lat="45.90796" lon="6.42218">
        <ele>1174.868408</ele>
        <time>2010-11-27T14:46:50Z</time>
      </trkpt>
      <trkpt lat="45.90798" lon="6.42223">
        <ele>1175.82959</ele>
        <time>2010-11-27T14:46:59Z</time>
      </trkpt>
      <trkpt lat="45.90798" lon="6.42226">
        <ele>1177.271729</ele>
        <time>2010-11-27T14:49:50Z</time>
      </trkpt>
      <trkpt lat="45.90799" lon="6.42223">
        <ele>1177.271729</ele>
        <time>2010-11-27T14:50:00Z</time>
      </trkpt>
      <trkpt lat="45.90799" lon="6.42222">
        <ele>1176.791016</ele>
        <time>2010-11-27T14:50:54Z</time>
      </trkpt>
      <trkpt lat="45.90798" lon="6.42219">
        <ele>1177.752197</ele>
        <time>2010-11-27T14:51:29Z</time>
      </trkpt>
      <trkpt lat="45.90798" lon="6.42215">
        <ele>1178.713623</ele>
        <time>2010-11-27T14:51:54Z</time>
      </trkpt>
      <trkpt lat="45.90799" lon="6.42212">
        <ele>1179.674805</ele>
        <time>2010-11-27T14:52:04Z</time>
      </trkpt>
      <trkpt lat="45.90802" lon="6.42219">
        <ele>1181.597656</ele>
        <time>2010-11-27T14:52:16Z</time>
      </trkpt>
      <trkpt lat="45.90805" lon="6.42223">
        <ele>1181.597656</ele>
        <time>2010-11-27T14:52:23Z</time>
      </trkpt>
      <trkpt lat="45.90808" lon="6.42225">
        <ele>1182.559082</ele>
        <time>2010-11-27T14:52:32Z</time>
      </trkpt>
      <trkpt lat="45.90809" lon="6.4222">
        <ele>1183.520264</ele>
        <time>2010-11-27T14:52:41Z</time>
      </trkpt>
      <trkpt lat="45.9081" lon="6.42215">
        <ele>1184.962402</ele>
        <time>2010-11-27T14:52:51Z</time>
      </trkpt>
      <trkpt lat="45.90812" lon="6.42217">
        <ele>1185.442871</ele>
        <time>2010-11-27T14:52:59Z</time>
      </trkpt>
      <trkpt lat="45.90814" lon="6.4222">
        <ele>1186.404297</ele>
        <time>2010-11-27T14:53:09Z</time>
      </trkpt>
      <trkpt lat="45.90818" lon="6.42224">
        <ele>1188.326904</ele>
        <time>2010-11-27T14:53:20Z</time>
      </trkpt>
      <trkpt lat="45.90822" lon="6.4223">
        <ele>1189.288086</ele>
        <time>2010-11-27T14:53:30Z</time>
      </trkpt>
      <trkpt lat="45.90825" lon="6.42239">
        <ele>1189.768799</ele>
        <time>2010-11-27T14:53:42Z</time>
      </trkpt>
      <trkpt lat="45.90827" lon="6.42248">
        <ele>1190.72998</ele>
        <time>2010-11-27T14:53:52Z</time>
      </trkpt>
      <trkpt lat="45.9083" lon="6.42256">
        <ele>1190.72998</ele>
        <time>2010-11-27T14:54:02Z</time>
      </trkpt>
      <trkpt lat="45.90832" lon="6.42263">
        <ele>1191.691406</ele>
        <time>2010-11-27T14:54:13Z</time>
      </trkpt>
      <trkpt lat="45.90835" lon="6.4227">
        <ele>1193.614014</ele>
        <time>2010-11-27T14:54:22Z</time>
      </trkpt>
      <trkpt lat="45.9084" lon="6.42278">
        <ele>1194.094727</ele>
        <time>2010-11-27T14:54:34Z</time>
      </trkpt>
      <trkpt lat="45.90842" lon="6.42284">
        <ele>1194.575195</ele>
        <time>2010-11-27T14:54:44Z</time>
      </trkpt>
      <trkpt lat="45.90844" lon="6.42288">
        <ele>1195.536621</ele>
        <time>2010-11-27T14:54:53Z</time>
      </trkpt>
      <trkpt lat="45.90848" lon="6.42294">
        <ele>1196.97876</ele>
        <time>2010-11-27T14:55:02Z</time>
      </trkpt>
      <trkpt lat="45.90849" lon="6.42301">
        <ele>1198.420654</ele>
        <time>2010-11-27T14:55:12Z</time>
      </trkpt>
      <trkpt lat="45.90853" lon="6.42309">
        <ele>1199.862793</ele>
        <time>2010-11-27T14:55:22Z</time>
      </trkpt>
      <trkpt lat="45.90857" lon="6.42315">
        <ele>1199.862793</ele>
        <time>2010-11-27T14:55:33Z</time>
      </trkpt>
      <trkpt lat="45.90861" lon="6.42318">
        <ele>1200.343506</ele>
        <time>2010-11-27T14:55:42Z</time>
      </trkpt>
      <trkpt lat="45.90859" lon="6.42311">
        <ele>1202.265869</ele>
        <time>2010-11-27T14:55:52Z</time>
      </trkpt>
      <trkpt lat="45.9086" lon="6.42305">
        <ele>1203.227295</ele>
        <time>2010-11-27T14:56:02Z</time>
      </trkpt>
      <trkpt lat="45.90861" lon="6.42304">
        <ele>1203.708008</ele>
        <time>2010-11-27T14:56:11Z</time>
      </trkpt>
      <trkpt lat="45.90866" lon="6.42309">
        <ele>1205.630615</ele>
        <time>2010-11-27T14:56:23Z</time>
      </trkpt>
      <trkpt lat="45.90866" lon="6.42303">
        <ele>1206.111084</ele>
        <time>2010-11-27T14:56:33Z</time>
      </trkpt>
      <trkpt lat="45.90867" lon="6.42303">
        <ele>1207.07251</ele>
        <time>2010-11-27T14:56:41Z</time>
      </trkpt>
      <trkpt lat="45.90871" lon="6.4231">
        <ele>1208.033936</ele>
        <time>2010-11-27T14:56:52Z</time>
      </trkpt>
      <trkpt lat="45.90873" lon="6.42307">
        <ele>1208.514404</ele>
        <time>2010-11-27T14:57:00Z</time>
      </trkpt>
      <trkpt lat="45.90875" lon="6.42304">
        <ele>1209.47583</ele>
        <time>2010-11-27T14:57:09Z</time>
      </trkpt>
      <trkpt lat="45.90878" lon="6.42312">
        <ele>1210.437012</ele>
        <time>2010-11-27T14:57:21Z</time>
      </trkpt>
      <trkpt lat="45.9088" lon="6.42318">
        <ele>1211.398438</ele>
        <time>2010-11-27T14:57:31Z</time>
      </trkpt>
      <trkpt lat="45.90882" lon="6.42323">
        <ele>1211.87915</ele>
        <time>2010-11-27T14:57:42Z</time>
      </trkpt>
      <trkpt lat="45.90885" lon="6.42328">
        <ele>1212.840576</ele>
        <time>2010-11-27T14:57:49Z</time>
      </trkpt>
      <trkpt lat="45.90888" lon="6.42329">
        <ele>1213.801758</ele>
        <time>2010-11-27T14:57:58Z</time>
      </trkpt>
      <trkpt lat="45.90887" lon="6.42325">
        <ele>1214.763184</ele>
        <time>2010-11-27T14:58:06Z</time>
      </trkpt>
      <trkpt lat="45.90885" lon="6.4232">
        <ele>1215.724609</ele>
        <time>2010-11-27T14:58:16Z</time>
      </trkpt>
      <trkpt lat="45.90889" lon="6.42324">
        <ele>1217.646973</ele>
        <time>2010-11-27T14:58:25Z</time>
      </trkpt>
      <trkpt lat="45.90893" lon="6.42329">
        <ele>1218.608398</ele>
        <time>2010-11-27T14:58:34Z</time>
      </trkpt>
      <trkpt lat="45.90896" lon="6.42336">
        <ele>1219.089111</ele>
        <time>2010-11-27T14:58:44Z</time>
      </trkpt>
      <trkpt lat="45.90897" lon="6.42334">
        <ele>1220.531006</ele>
        <time>2010-11-27T14:58:52Z</time>
      </trkpt>
      <trkpt lat="45.90898" lon="6.42327">
        <ele>1221.492188</ele>
        <time>2010-11-27T14:59:03Z</time>
      </trkpt>
      <trkpt lat="45.90898" lon="6.42318">
        <ele>1222.934326</ele>
        <time>2010-11-27T14:59:16Z</time>
      </trkpt>
      <trkpt lat="45.90897" lon="6.42307">
        <ele>1224.856934</ele>
        <time>2010-11-27T14:59:30Z</time>
      </trkpt>
      <trkpt lat="45.90896" lon="6.42301">
        <ele>1225.818115</ele>
        <time>2010-11-27T14:59:39Z</time>
      </trkpt>
      <trkpt lat="45.90897" lon="6.42299">
        <ele>1226.779541</ele>
        <time>2010-11-27T14:59:47Z</time>
      </trkpt>
      <trkpt lat="45.909" lon="6.42302">
        <ele>1228.22168</ele>
        <time>2010-11-27T14:59:56Z</time>
      </trkpt>
      <trkpt lat="45.90904" lon="6.42307">
        <ele>1229.182861</ele>
        <time>2010-11-27T15:00:06Z</time>
      </trkpt>
      <trkpt lat="45.90907" lon="6.4231">
        <ele>1229.663574</ele>
        <time>2010-11-27T15:00:14Z</time>
      </trkpt>
      <trkpt lat="45.90911" lon="6.42318">
        <ele>1230.144287</ele>
        <time>2010-11-27T15:00:25Z</time>
      </trkpt>
      <trkpt lat="45.90913" lon="6.42319">
        <ele>1231.586182</ele>
        <time>2010-11-27T15:00:34Z</time>
      </trkpt>
      <trkpt lat="45.90912" lon="6.42313">
        <ele>1233.028076</ele>
        <time>2010-11-27T15:00:43Z</time>
      </trkpt>
      <trkpt lat="45.90911" lon="6.42309">
        <ele>1233.508789</ele>
        <time>2010-11-27T15:00:51Z</time>
      </trkpt>
      <trkpt lat="45.90914" lon="6.42309">
        <ele>1234.950928</ele>
        <time>2010-11-27T15:01:02Z</time>
      </trkpt>
      <trkpt lat="45.90917" lon="6.42315">
        <ele>1236.392822</ele>
        <time>2010-11-27T15:01:12Z</time>
      </trkpt>
      <trkpt lat="45.90922" lon="6.42324">
        <ele>1237.354004</ele>
        <time>2010-11-27T15:01:24Z</time>
      </trkpt>
      <trkpt lat="45.90925" lon="6.42332">
        <ele>1238.796143</ele>
        <time>2010-11-27T15:01:36Z</time>
      </trkpt>
      <trkpt lat="45.90928" lon="6.42339">
        <ele>1239.276611</ele>
        <time>2010-11-27T15:01:46Z</time>
      </trkpt>
      <trkpt lat="45.90929" lon="6.42345">
        <ele>1240.718506</ele>
        <time>2010-11-27T15:01:55Z</time>
      </trkpt>
      <trkpt lat="45.90933" lon="6.42349">
        <ele>1242.160645</ele>
        <time>2010-11-27T15:02:03Z</time>
      </trkpt>
      <trkpt lat="45.90935" lon="6.42355">
        <ele>1242.641357</ele>
        <time>2010-11-27T15:02:12Z</time>
      </trkpt>
      <trkpt lat="45.90938" lon="6.42361">
        <ele>1243.121826</ele>
        <time>2010-11-27T15:02:21Z</time>
      </trkpt>
      <trkpt lat="45.90941" lon="6.42369">
        <ele>1244.083496</ele>
        <time>2010-11-27T15:02:34Z</time>
      </trkpt>
      <trkpt lat="45.90945" lon="6.42376">
        <ele>1245.044678</ele>
        <time>2010-11-27T15:02:44Z</time>
      </trkpt>
      <trkpt lat="45.90947" lon="6.42382">
        <ele>1247.447998</ele>
        <time>2010-11-27T15:02:54Z</time>
      </trkpt>
      <trkpt lat="45.90951" lon="6.42385">
        <ele>1248.40918</ele>
        <time>2010-11-27T15:03:04Z</time>
      </trkpt>
      <trkpt lat="45.90955" lon="6.42387">
        <ele>1248.889893</ele>
        <time>2010-11-27T15:03:11Z</time>
      </trkpt>
      <trkpt lat="45.90958" lon="6.42391">
        <ele>1251.293213</ele>
        <time>2010-11-27T15:03:22Z</time>
      </trkpt>
      <trkpt lat="45.9096" lon="6.42394">
        <ele>1251.293213</ele>
        <time>2010-11-27T15:03:29Z</time>
      </trkpt>
      <trkpt lat="45.90963" lon="6.42393">
        <ele>1252.254395</ele>
        <time>2010-11-27T15:03:37Z</time>
      </trkpt>
      <trkpt lat="45.90964" lon="6.42397">
        <ele>1253.21582</ele>
        <time>2010-11-27T15:03:45Z</time>
      </trkpt>
      <trkpt lat="45.90967" lon="6.42403">
        <ele>1254.177246</ele>
        <time>2010-11-27T15:03:55Z</time>
      </trkpt>
      <trkpt lat="45.90969" lon="6.4241">
        <ele>1256.099609</ele>
        <time>2010-11-27T15:04:07Z</time>
      </trkpt>
      <trkpt lat="45.90972" lon="6.42418">
        <ele>1256.580322</ele>
        <time>2010-11-27T15:04:17Z</time>
      </trkpt>
      <trkpt lat="45.90974" lon="6.42421">
        <ele>1258.022461</ele>
        <time>2010-11-27T15:04:28Z</time>
      </trkpt>
      <trkpt lat="45.90973" lon="6.42416">
        <ele>1258.983643</ele>
        <time>2010-11-27T15:04:38Z</time>
      </trkpt>
      <trkpt lat="45.90976" lon="6.42417">
        <ele>1259.464355</ele>
        <time>2010-11-27T15:04:47Z</time>
      </trkpt>
      <trkpt lat="45.9098" lon="6.42423">
        <ele>1261.387207</ele>
        <time>2010-11-27T15:04:58Z</time>
      </trkpt>
      <trkpt lat="45.9098" lon="6.42428">
        <ele>1262.348389</ele>
        <time>2010-11-27T15:05:06Z</time>
      </trkpt>
      <trkpt lat="45.90982" lon="6.42436">
        <ele>1263.309814</ele>
        <time>2010-11-27T15:05:15Z</time>
      </trkpt>
      <trkpt lat="45.90985" lon="6.42442">
        <ele>1264.751709</ele>
        <time>2010-11-27T15:05:24Z</time>
      </trkpt>
      <trkpt lat="45.90986" lon="6.4244">
        <ele>1265.232422</ele>
        <time>2010-11-27T15:05:34Z</time>
      </trkpt>
      <trkpt lat="45.90987" lon="6.42434">
        <ele>1265.713135</ele>
        <time>2010-11-27T15:05:43Z</time>
      </trkpt>
      <trkpt lat="45.90989" lon="6.42437">
        <ele>1266.193604</ele>
        <time>2010-11-27T15:05:51Z</time>
      </trkpt>
      <trkpt lat="45.9099" lon="6.42443">
        <ele>1266.674316</ele>
        <time>2010-11-27T15:06:00Z</time>
      </trkpt>
      <trkpt lat="45.90992" lon="6.42447">
        <ele>1268.596924</ele>
        <time>2010-11-27T15:06:08Z</time>
      </trkpt>
      <trkpt lat="45.90996" lon="6.42441">
        <ele>1269.077637</ele>
        <time>2010-11-27T15:06:18Z</time>
      </trkpt>
      <trkpt lat="45.90999" lon="6.42435">
        <ele>1270.038818</ele>
        <time>2010-11-27T15:06:28Z</time>
      </trkpt>
      <trkpt lat="45.91001" lon="6.42427">
        <ele>1272.922852</ele>
        <time>2010-11-27T15:06:40Z</time>
      </trkpt>
      <trkpt lat="45.91003" lon="6.42421">
        <ele>1273.884033</ele>
        <time>2010-11-27T15:06:52Z</time>
      </trkpt>
      <trkpt lat="45.91003" lon="6.42412">
        <ele>1275.806641</ele>
        <time>2010-11-27T15:07:03Z</time>
      </trkpt>
      <trkpt lat="45.91005" lon="6.42413">
        <ele>1276.287598</ele>
        <time>2010-11-27T15:07:10Z</time>
      </trkpt>
      <trkpt lat="45.91007" lon="6.42415">
        <ele>1277.249023</ele>
        <time>2010-11-27T15:07:21Z</time>
      </trkpt>
      <trkpt lat="45.91011" lon="6.42421">
        <ele>1279.171387</ele>
        <time>2010-11-27T15:07:32Z</time>
      </trkpt>
      <trkpt lat="45.91013" lon="6.42428">
        <ele>1281.094238</ele>
        <time>2010-11-27T15:07:43Z</time>
      </trkpt>
      <trkpt lat="45.91017" lon="6.42436">
        <ele>1281.574707</ele>
        <time>2010-11-27T15:07:54Z</time>
      </trkpt>
      <trkpt lat="45.91018" lon="6.42441">
        <ele>1283.016602</ele>
        <time>2010-11-27T15:08:04Z</time>
      </trkpt>
      <trkpt lat="45.91021" lon="6.42441">
        <ele>1283.978027</ele>
        <time>2010-11-27T15:08:14Z</time>
      </trkpt>
      <trkpt lat="45.91022" lon="6.42435">
        <ele>1284.939453</ele>
        <time>2010-11-27T15:08:24Z</time>
      </trkpt>
      <trkpt lat="45.91022" lon="6.42429">
        <ele>1286.381348</ele>
        <time>2010-11-27T15:08:35Z</time>
      </trkpt>
      <trkpt lat="45.91023" lon="6.42421">
        <ele>1286.861816</ele>
        <time>2010-11-27T15:08:47Z</time>
      </trkpt>
      <trkpt lat="45.91025" lon="6.42417">
        <ele>1287.823242</ele>
        <time>2010-11-27T15:08:56Z</time>
      </trkpt>
      <trkpt lat="45.91029" lon="6.42422">
        <ele>1289.265137</ele>
        <time>2010-11-27T15:09:04Z</time>
      </trkpt>
      <trkpt lat="45.91033" lon="6.42428">
        <ele>1289.74585</ele>
        <time>2010-11-27T15:09:15Z</time>
      </trkpt>
      <trkpt lat="45.91035" lon="6.4243">
        <ele>1290.707031</ele>
        <time>2010-11-27T15:09:24Z</time>
      </trkpt>
      <trkpt lat="45.91037" lon="6.42424">
        <ele>1292.149414</ele>
        <time>2010-11-27T15:09:33Z</time>
      </trkpt>
      <trkpt lat="45.91039" lon="6.42415">
        <ele>1293.591309</ele>
        <time>2010-11-27T15:09:46Z</time>
      </trkpt>
      <trkpt lat="45.9104" lon="6.42414">
        <ele>1295.033203</ele>
        <time>2010-11-27T15:09:56Z</time>
      </trkpt>
      <trkpt lat="45.91044" lon="6.42419">
        <ele>1296.475342</ele>
        <time>2010-11-27T15:10:08Z</time>
      </trkpt>
      <trkpt lat="45.91048" lon="6.42425">
        <ele>1297.436523</ele>
        <time>2010-11-27T15:10:18Z</time>
      </trkpt>
      <trkpt lat="45.91052" lon="6.42435">
        <ele>1297.917236</ele>
        <time>2010-11-27T15:10:29Z</time>
      </trkpt>
      <trkpt lat="45.91056" lon="6.42445">
        <ele>1299.359131</ele>
        <time>2010-11-27T15:10:40Z</time>
      </trkpt>
      <trkpt lat="45.91059" lon="6.42453">
        <ele>1300.320557</ele>
        <time>2010-11-27T15:10:52Z</time>
      </trkpt>
      <trkpt lat="45.91062" lon="6.42456">
        <ele>1302.24292</ele>
        <time>2010-11-27T15:11:01Z</time>
      </trkpt>
      <trkpt lat="45.91067" lon="6.42461">
        <ele>1303.685059</ele>
        <time>2010-11-27T15:11:12Z</time>
      </trkpt>
      <trkpt lat="45.91068" lon="6.42469">
        <ele>1305.607666</ele>
        <time>2010-11-27T15:11:23Z</time>
      </trkpt>
      <trkpt lat="45.91071" lon="6.42476">
        <ele>1305.607666</ele>
        <time>2010-11-27T15:11:32Z</time>
      </trkpt>
      <trkpt lat="45.91076" lon="6.42477">
        <ele>1306.568848</ele>
        <time>2010-11-27T15:11:41Z</time>
      </trkpt>
      <trkpt lat="45.91082" lon="6.42478">
        <ele>1308.972412</ele>
        <time>2010-11-27T15:11:54Z</time>
      </trkpt>
      <trkpt lat="45.91086" lon="6.42482">
        <ele>1309.933594</ele>
        <time>2010-11-27T15:12:06Z</time>
      </trkpt>
      <trkpt lat="45.91084" lon="6.42487">
        <ele>1311.856445</ele>
        <time>2010-11-27T15:12:17Z</time>
      </trkpt>
      <trkpt lat="45.91084" lon="6.4249">
        <ele>1312.336914</ele>
        <time>2010-11-27T15:12:26Z</time>
      </trkpt>
      <trkpt lat="45.9109" lon="6.42491">
        <ele>1312.817627</ele>
        <time>2010-11-27T15:12:38Z</time>
      </trkpt>
      <trkpt lat="45.91089" lon="6.42494">
        <ele>1314.740234</ele>
        <time>2010-11-27T15:12:47Z</time>
      </trkpt>
      <trkpt lat="45.91087" lon="6.42499">
        <ele>1315.220947</ele>
        <time>2010-11-27T15:12:56Z</time>
      </trkpt>
      <trkpt lat="45.91086" lon="6.42505">
        <ele>1316.662842</ele>
        <time>2010-11-27T15:13:06Z</time>
      </trkpt>
      <trkpt lat="45.91087" lon="6.42509">
        <ele>1318.104736</ele>
        <time>2010-11-27T15:13:15Z</time>
      </trkpt>
      <trkpt lat="45.9109" lon="6.42509">
        <ele>1319.066162</ele>
        <time>2010-11-27T15:13:24Z</time>
      </trkpt>
      <trkpt lat="45.91093" lon="6.42506">
        <ele>1320.508057</ele>
        <time>2010-11-27T15:13:33Z</time>
      </trkpt>
      <trkpt lat="45.91098" lon="6.42503">
        <ele>1321.469238</ele>
        <time>2010-11-27T15:13:45Z</time>
      </trkpt>
      <trkpt lat="45.911" lon="6.42506">
        <ele>1321.469238</ele>
        <time>2010-11-27T15:13:54Z</time>
      </trkpt>
      <trkpt lat="45.91098" lon="6.42512">
        <ele>1322.911377</ele>
        <time>2010-11-27T15:14:04Z</time>
      </trkpt>
      <trkpt lat="45.91098" lon="6.42515">
        <ele>1324.353516</ele>
        <time>2010-11-27T15:14:16Z</time>
      </trkpt>
      <trkpt lat="45.91101" lon="6.42515">
        <ele>1326.756836</ele>
        <time>2010-11-27T15:14:28Z</time>
      </trkpt>
      <trkpt lat="45.91098" lon="6.42521">
        <ele>1327.718018</ele>
        <time>2010-11-27T15:14:39Z</time>
      </trkpt>
      <trkpt lat="45.91094" lon="6.42525">
        <ele>1328.19873</ele>
        <time>2010-11-27T15:14:50Z</time>
      </trkpt>
      <trkpt lat="45.91091" lon="6.42531">
        <ele>1329.159912</ele>
        <time>2010-11-27T15:15:00Z</time>
      </trkpt>
      <trkpt lat="45.91088" lon="6.42537">
        <ele>1329.159912</ele>
        <time>2010-11-27T15:15:10Z</time>
      </trkpt>
      <trkpt lat="45.91088" lon="6.4254">
        <ele>1330.602051</ele>
        <time>2010-11-27T15:15:20Z</time>
      </trkpt>
      <trkpt lat="45.91087" lon="6.42546">
        <ele>1332.524658</ele>
        <time>2010-11-27T15:15:29Z</time>
      </trkpt>
      <trkpt lat="45.91084" lon="6.42552">
        <ele>1333.48584</ele>
        <time>2010-11-27T15:15:41Z</time>
      </trkpt>
      <trkpt lat="45.91083" lon="6.42557">
        <ele>1335.408447</ele>
        <time>2010-11-27T15:15:50Z</time>
      </trkpt>
      <trkpt lat="45.91083" lon="6.42561">
        <ele>1336.369873</ele>
        <time>2010-11-27T15:15:59Z</time>
      </trkpt>
      <trkpt lat="45.91083" lon="6.42563">
        <ele>1337.331055</ele>
        <time>2010-11-27T15:16:07Z</time>
      </trkpt>
      <trkpt lat="45.91084" lon="6.4257">
        <ele>1338.29248</ele>
        <time>2010-11-27T15:16:16Z</time>
      </trkpt>
      <trkpt lat="45.91084" lon="6.42578">
        <ele>1339.734375</ele>
        <time>2010-11-27T15:16:27Z</time>
      </trkpt>
      <trkpt lat="45.91085" lon="6.42585">
        <ele>1341.176514</ele>
        <time>2010-11-27T15:16:39Z</time>
      </trkpt>
      <trkpt lat="45.91087" lon="6.42591">
        <ele>1342.137939</ele>
        <time>2010-11-27T15:16:49Z</time>
      </trkpt>
      <trkpt lat="45.91089" lon="6.426">
        <ele>1343.579834</ele>
        <time>2010-11-27T15:17:00Z</time>
      </trkpt>
      <trkpt lat="45.91094" lon="6.42609">
        <ele>1345.502441</ele>
        <time>2010-11-27T15:17:12Z</time>
      </trkpt>
      <trkpt lat="45.91095" lon="6.42617">
        <ele>1346.463867</ele>
        <time>2010-11-27T15:17:22Z</time>
      </trkpt>
      <trkpt lat="45.91096" lon="6.42623">
        <ele>1347.425049</ele>
        <time>2010-11-27T15:17:32Z</time>
      </trkpt>
      <trkpt lat="45.91099" lon="6.42629">
        <ele>1348.38623</ele>
        <time>2010-11-27T15:17:43Z</time>
      </trkpt>
      <trkpt lat="45.91102" lon="6.42638">
        <ele>1349.347656</ele>
        <time>2010-11-27T15:17:54Z</time>
      </trkpt>
      <trkpt lat="45.91106" lon="6.42646">
        <ele>1350.309082</ele>
        <time>2010-11-27T15:18:05Z</time>
      </trkpt>
      <trkpt lat="45.9111" lon="6.42653">
        <ele>1351.750977</ele>
        <time>2010-11-27T15:18:18Z</time>
      </trkpt>
      <trkpt lat="45.91115" lon="6.4266">
        <ele>1354.154297</ele>
        <time>2010-11-27T15:18:31Z</time>
      </trkpt>
      <trkpt lat="45.9112" lon="6.42666">
        <ele>1355.115479</ele>
        <time>2010-11-27T15:18:41Z</time>
      </trkpt>
      <trkpt lat="45.91124" lon="6.42672">
        <ele>1355.596191</ele>
        <time>2010-11-27T15:18:51Z</time>
      </trkpt>
      <trkpt lat="45.91129" lon="6.42679">
        <ele>1356.076904</ele>
        <time>2010-11-27T15:19:02Z</time>
      </trkpt>
      <trkpt lat="45.91132" lon="6.42691">
        <ele>1355.596191</ele>
        <time>2010-11-27T15:19:13Z</time>
      </trkpt>
      <trkpt lat="45.91129" lon="6.42701">
        <ele>1354.154297</ele>
        <time>2010-11-27T15:19:22Z</time>
      </trkpt>
      <trkpt lat="45.91129" lon="6.42711">
        <ele>1354.154297</ele>
        <time>2010-11-27T15:19:31Z</time>
      </trkpt>
      <trkpt lat="45.91129" lon="6.42721">
        <ele>1353.673584</ele>
        <time>2010-11-27T15:19:41Z</time>
      </trkpt>
      <trkpt lat="45.91131" lon="6.4272">
        <ele>1352.712158</ele>
        <time>2010-11-27T15:24:36Z</time>
      </trkpt>
      <trkpt lat="45.91132" lon="6.42721">
        <ele>1353.192871</ele>
        <time>2010-11-27T15:24:54Z</time>
      </trkpt>
      <trkpt lat="45.91135" lon="6.42726">
        <ele>1354.154297</ele>
        <time>2010-11-27T15:25:04Z</time>
      </trkpt>
      <trkpt lat="45.91138" lon="6.4273">
        <ele>1354.634766</ele>
        <time>2010-11-27T15:25:13Z</time>
      </trkpt>
      <trkpt lat="45.9114" lon="6.42736">
        <ele>1355.596191</ele>
        <time>2010-11-27T15:25:23Z</time>
      </trkpt>
      <trkpt lat="45.91144" lon="6.4274">
        <ele>1356.557617</ele>
        <time>2010-11-27T15:25:33Z</time>
      </trkpt>
      <trkpt lat="45.91148" lon="6.42747">
        <ele>1357.519043</ele>
        <time>2010-11-27T15:25:43Z</time>
      </trkpt>
      <trkpt lat="45.91151" lon="6.42757">
        <ele>1357.519043</ele>
        <time>2010-11-27T15:25:54Z</time>
      </trkpt>
      <trkpt lat="45.91154" lon="6.4277">
        <ele>1357.999756</ele>
        <time>2010-11-27T15:26:06Z</time>
      </trkpt>
      <trkpt lat="45.91155" lon="6.42777">
        <ele>1357.999756</ele>
        <time>2010-11-27T15:26:14Z</time>
      </trkpt>
      <trkpt lat="45.9116" lon="6.42785">
        <ele>1358.480225</ele>
        <time>2010-11-27T15:26:24Z</time>
      </trkpt>
      <trkpt lat="45.91165" lon="6.42793">
        <ele>1358.960938</ele>
        <time>2010-11-27T15:26:34Z</time>
      </trkpt>
      <trkpt lat="45.9117" lon="6.42799">
        <ele>1359.922119</ele>
        <time>2010-11-27T15:26:44Z</time>
      </trkpt>
      <trkpt lat="45.91177" lon="6.42805">
        <ele>1360.402832</ele>
        <time>2010-11-27T15:26:58Z</time>
      </trkpt>
      <trkpt lat="45.91181" lon="6.42808">
        <ele>1362.325439</ele>
        <time>2010-11-27T15:27:08Z</time>
      </trkpt>
      <trkpt lat="45.91186" lon="6.42812">
        <ele>1364.248047</ele>
        <time>2010-11-27T15:27:19Z</time>
      </trkpt>
      <trkpt lat="45.91192" lon="6.42815">
        <ele>1366.651367</ele>
        <time>2010-11-27T15:27:32Z</time>
      </trkpt>
      <trkpt lat="45.91197" lon="6.42817">
        <ele>1367.612549</ele>
        <time>2010-11-27T15:27:44Z</time>
      </trkpt>
      <trkpt lat="45.91202" lon="6.4282">
        <ele>1370.015869</ele>
        <time>2010-11-27T15:27:55Z</time>
      </trkpt>
      <trkpt lat="45.91207" lon="6.42823">
        <ele>1370.977295</ele>
        <time>2010-11-27T15:28:06Z</time>
      </trkpt>
      <trkpt lat="45.91211" lon="6.42828">
        <ele>1372.419434</ele>
        <time>2010-11-27T15:28:18Z</time>
      </trkpt>
      <trkpt lat="45.91216" lon="6.42832">
        <ele>1372.900146</ele>
        <time>2010-11-27T15:28:28Z</time>
      </trkpt>
      <trkpt lat="45.91221" lon="6.42836">
        <ele>1373.861328</ele>
        <time>2010-11-27T15:28:40Z</time>
      </trkpt>
      <trkpt lat="45.91226" lon="6.42841">
        <ele>1375.303223</ele>
        <time>2010-11-27T15:28:51Z</time>
      </trkpt>
      <trkpt lat="45.91231" lon="6.42847">
        <ele>1376.745361</ele>
        <time>2010-11-27T15:29:04Z</time>
      </trkpt>
      <trkpt lat="45.91234" lon="6.42854">
        <ele>1377.706543</ele>
        <time>2010-11-27T15:29:15Z</time>
      </trkpt>
      <trkpt lat="45.9124" lon="6.42861">
        <ele>1379.62915</ele>
        <time>2010-11-27T15:29:28Z</time>
      </trkpt>
      <trkpt lat="45.91244" lon="6.42865">
        <ele>1380.590576</ele>
        <time>2010-11-27T15:29:39Z</time>
      </trkpt>
      <trkpt lat="45.91249" lon="6.42872">
        <ele>1382.513184</ele>
        <time>2010-11-27T15:29:52Z</time>
      </trkpt>
      <trkpt lat="45.91254" lon="6.42878">
        <ele>1384.435791</ele>
        <time>2010-11-27T15:30:04Z</time>
      </trkpt>
      <trkpt lat="45.91257" lon="6.42887">
        <ele>1384.435791</ele>
        <time>2010-11-27T15:30:13Z</time>
      </trkpt>
      <trkpt lat="45.91262" lon="6.42894">
        <ele>1384.435791</ele>
        <time>2010-11-27T15:30:24Z</time>
      </trkpt>
      <trkpt lat="45.91266" lon="6.42904">
        <ele>1384.916504</ele>
        <time>2010-11-27T15:30:36Z</time>
      </trkpt>
      <trkpt lat="45.91268" lon="6.42914">
        <ele>1384.435791</ele>
        <time>2010-11-27T15:30:46Z</time>
      </trkpt>
      <trkpt lat="45.91269" lon="6.42925">
        <ele>1383.955078</ele>
        <time>2010-11-27T15:30:56Z</time>
      </trkpt>
      <trkpt lat="45.91271" lon="6.42935">
        <ele>1382.993652</ele>
        <time>2010-11-27T15:31:06Z</time>
      </trkpt>
      <trkpt lat="45.91274" lon="6.42944">
        <ele>1383.955078</ele>
        <time>2010-11-27T15:31:16Z</time>
      </trkpt>
      <trkpt lat="45.91277" lon="6.42953">
        <ele>1384.435791</ele>
        <time>2010-11-27T15:31:27Z</time>
      </trkpt>
      <trkpt lat="45.91281" lon="6.42962">
        <ele>1384.916504</ele>
        <time>2010-11-27T15:31:38Z</time>
      </trkpt>
      <trkpt lat="45.91287" lon="6.42971">
        <ele>1385.396973</ele>
        <time>2010-11-27T15:31:49Z</time>
      </trkpt>
      <trkpt lat="45.91291" lon="6.42978">
        <ele>1386.358398</ele>
        <time>2010-11-27T15:31:59Z</time>
      </trkpt>
      <trkpt lat="45.91296" lon="6.42984">
        <ele>1388.761963</ele>
        <time>2010-11-27T15:32:09Z</time>
      </trkpt>
      <trkpt lat="45.913" lon="6.42988">
        <ele>1389.723145</ele>
        <time>2010-11-27T15:32:18Z</time>
      </trkpt>
      <trkpt lat="45.91305" lon="6.42994">
        <ele>1390.203857</ele>
        <time>2010-11-27T15:32:29Z</time>
      </trkpt>
      <trkpt lat="45.91309" lon="6.43002">
        <ele>1390.684326</ele>
        <time>2010-11-27T15:32:38Z</time>
      </trkpt>
      <trkpt lat="45.91314" lon="6.4301">
        <ele>1390.203857</ele>
        <time>2010-11-27T15:32:48Z</time>
      </trkpt>
      <trkpt lat="45.9132" lon="6.43019">
        <ele>1391.165039</ele>
        <time>2010-11-27T15:33:02Z</time>
      </trkpt>
      <trkpt lat="45.91325" lon="6.43025">
        <ele>1392.126465</ele>
        <time>2010-11-27T15:33:10Z</time>
      </trkpt>
      <trkpt lat="45.91329" lon="6.43035">
        <ele>1391.645752</ele>
        <time>2010-11-27T15:33:20Z</time>
      </trkpt>
      <trkpt lat="45.91332" lon="6.43043">
        <ele>1393.568359</ele>
        <time>2010-11-27T15:33:31Z</time>
      </trkpt>
      <trkpt lat="45.91335" lon="6.43049">
        <ele>1394.529541</ele>
        <time>2010-11-27T15:33:40Z</time>
      </trkpt>
      <trkpt lat="45.91338" lon="6.43058">
        <ele>1395.490967</ele>
        <time>2010-11-27T15:33:51Z</time>
      </trkpt>
      <trkpt lat="45.91342" lon="6.4307">
        <ele>1395.97168</ele>
        <time>2010-11-27T15:34:02Z</time>
      </trkpt>
      <trkpt lat="45.91344" lon="6.43082">
        <ele>1394.049072</ele>
        <time>2010-11-27T15:34:13Z</time>
      </trkpt>
      <trkpt lat="45.91342" lon="6.43094">
        <ele>1391.165039</ele>
        <time>2010-11-27T15:34:23Z</time>
      </trkpt>
      <trkpt lat="45.9134" lon="6.4311">
        <ele>1389.723145</ele>
        <time>2010-11-27T15:34:35Z</time>
      </trkpt>
      <trkpt lat="45.91339" lon="6.43119">
        <ele>1389.242432</ele>
        <time>2010-11-27T15:34:43Z</time>
      </trkpt>
      <trkpt lat="45.91338" lon="6.43121">
        <ele>1388.761963</ele>
        <time>2010-11-27T15:34:45Z</time>
      </trkpt>
      <trkpt lat="45.91335" lon="6.43133">
        <ele>1388.28125</ele>
        <time>2010-11-27T15:34:55Z</time>
      </trkpt>
      <trkpt lat="45.91335" lon="6.43144">
        <ele>1389.242432</ele>
        <time>2010-11-27T15:35:05Z</time>
      </trkpt>
      <trkpt lat="45.91336" lon="6.43155">
        <ele>1389.723145</ele>
        <time>2010-11-27T15:35:15Z</time>
      </trkpt>
      <trkpt lat="45.91336" lon="6.43159">
        <ele>1389.242432</ele>
        <time>2010-11-27T15:35:18Z</time>
      </trkpt>
      <trkpt lat="45.91336" lon="6.43171">
        <ele>1387.31958</ele>
        <time>2010-11-27T15:35:28Z</time>
      </trkpt>
      <trkpt lat="45.91337" lon="6.43182">
        <ele>1385.877686</ele>
        <time>2010-11-27T15:35:37Z</time>
      </trkpt>
      <trkpt lat="45.91336" lon="6.43188">
        <ele>1385.396973</ele>
        <time>2010-11-27T15:35:42Z</time>
      </trkpt>
      <trkpt lat="45.91334" lon="6.43201">
        <ele>1382.032471</ele>
        <time>2010-11-27T15:35:52Z</time>
      </trkpt>
      <trkpt lat="45.91334" lon="6.43209">
        <ele>1381.071289</ele>
        <time>2010-11-27T15:35:59Z</time>
      </trkpt>
      <trkpt lat="45.91336" lon="6.43218">
        <ele>1379.148438</ele>
        <time>2010-11-27T15:36:08Z</time>
      </trkpt>
      <trkpt lat="45.91338" lon="6.4323">
        <ele>1376.264648</ele>
        <time>2010-11-27T15:36:17Z</time>
      </trkpt>
      <trkpt lat="45.91342" lon="6.4324">
        <ele>1375.783936</ele>
        <time>2010-11-27T15:36:27Z</time>
      </trkpt>
      <trkpt lat="45.91347" lon="6.43248">
        <ele>1372.900146</ele>
        <time>2010-11-27T15:36:36Z</time>
      </trkpt>
      <trkpt lat="45.91351" lon="6.4326">
        <ele>1370.496582</ele>
        <time>2010-11-27T15:36:46Z</time>
      </trkpt>
      <trkpt lat="45.91357" lon="6.43269">
        <ele>1370.977295</ele>
        <time>2010-11-27T15:36:56Z</time>
      </trkpt>
      <trkpt lat="45.91363" lon="6.43278">
        <ele>1372.419434</ele>
        <time>2010-11-27T15:37:07Z</time>
      </trkpt>
      <trkpt lat="45.91369" lon="6.43287">
        <ele>1371.938477</ele>
        <time>2010-11-27T15:37:17Z</time>
      </trkpt>
      <trkpt lat="45.91375" lon="6.43294">
        <ele>1372.419434</ele>
        <time>2010-11-27T15:37:27Z</time>
      </trkpt>
      <trkpt lat="45.91378" lon="6.43298">
        <ele>1373.380859</ele>
        <time>2010-11-27T15:37:34Z</time>
      </trkpt>
      <trkpt lat="45.91383" lon="6.43304">
        <ele>1373.861328</ele>
        <time>2010-11-27T15:37:43Z</time>
      </trkpt>
      <trkpt lat="45.91387" lon="6.43311">
        <ele>1375.303223</ele>
        <time>2010-11-27T15:37:54Z</time>
      </trkpt>
      <trkpt lat="45.91393" lon="6.4332">
        <ele>1373.380859</ele>
        <time>2010-11-27T15:38:05Z</time>
      </trkpt>
      <trkpt lat="45.91396" lon="6.43329">
        <ele>1371.457764</ele>
        <time>2010-11-27T15:38:14Z</time>
      </trkpt>
      <trkpt lat="45.91396" lon="6.43332">
        <ele>1370.015869</ele>
        <time>2010-11-27T15:38:17Z</time>
      </trkpt>
      <trkpt lat="45.91392" lon="6.43339">
        <ele>1369.054688</ele>
        <time>2010-11-27T15:38:25Z</time>
      </trkpt>
      <trkpt lat="45.91392" lon="6.43343">
        <ele>1367.612549</ele>
        <time>2010-11-27T15:38:28Z</time>
      </trkpt>
      <trkpt lat="45.91391" lon="6.43349">
        <ele>1365.690186</ele>
        <time>2010-11-27T15:38:33Z</time>
      </trkpt>
      <trkpt lat="45.91389" lon="6.4336">
        <ele>1364.248047</ele>
        <time>2010-11-27T15:38:42Z</time>
      </trkpt>
      <trkpt lat="45.91389" lon="6.43372">
        <ele>1363.286865</ele>
        <time>2010-11-27T15:38:51Z</time>
      </trkpt>
      <trkpt lat="45.91387" lon="6.43383">
        <ele>1363.286865</ele>
        <time>2010-11-27T15:39:01Z</time>
      </trkpt>
      <trkpt lat="45.91383" lon="6.43395">
        <ele>1360.402832</ele>
        <time>2010-11-27T15:39:12Z</time>
      </trkpt>
      <trkpt lat="45.91381" lon="6.43404">
        <ele>1358.480225</ele>
        <time>2010-11-27T15:39:19Z</time>
      </trkpt>
      <trkpt lat="45.91375" lon="6.43414">
        <ele>1357.03833</ele>
        <time>2010-11-27T15:39:29Z</time>
      </trkpt>
      <trkpt lat="45.91372" lon="6.43424">
        <ele>1357.03833</ele>
        <time>2010-11-27T15:39:38Z</time>
      </trkpt>
      <trkpt lat="45.91369" lon="6.43435">
        <ele>1356.076904</ele>
        <time>2010-11-27T15:39:47Z</time>
      </trkpt>
      <trkpt lat="45.91368" lon="6.43441">
        <ele>1356.076904</ele>
        <time>2010-11-27T15:39:51Z</time>
      </trkpt>
      <trkpt lat="45.91367" lon="6.43449">
        <ele>1355.596191</ele>
        <time>2010-11-27T15:39:56Z</time>
      </trkpt>
      <trkpt lat="45.9137" lon="6.43462">
        <ele>1355.596191</ele>
        <time>2010-11-27T15:40:06Z</time>
      </trkpt>
      <trkpt lat="45.9137" lon="6.43475">
        <ele>1354.634766</ele>
        <time>2010-11-27T15:40:16Z</time>
      </trkpt>
      <trkpt lat="45.91371" lon="6.43491">
        <ele>1353.673584</ele>
        <time>2010-11-27T15:40:27Z</time>
      </trkpt>
      <trkpt lat="45.91372" lon="6.43504">
        <ele>1353.673584</ele>
        <time>2010-11-27T15:40:37Z</time>
      </trkpt>
      <trkpt lat="45.91373" lon="6.43518">
        <ele>1354.154297</ele>
        <time>2010-11-27T15:40:48Z</time>
      </trkpt>
      <trkpt lat="45.91374" lon="6.43528">
        <ele>1355.115479</ele>
        <time>2010-11-27T15:40:59Z</time>
      </trkpt>
      <trkpt lat="45.91376" lon="6.43537">
        <ele>1355.596191</ele>
        <time>2010-11-27T15:41:10Z</time>
      </trkpt>
      <trkpt lat="45.91379" lon="6.43546">
        <ele>1356.076904</ele>
        <time>2010-11-27T15:41:21Z</time>
      </trkpt>
      <trkpt lat="45.91383" lon="6.4355">
        <ele>1357.03833</ele>
        <time>2010-11-27T15:41:32Z</time>
      </trkpt>
      <trkpt lat="45.91386" lon="6.43557">
        <ele>1357.999756</ele>
        <time>2010-11-27T15:41:41Z</time>
      </trkpt>
      <trkpt lat="45.9139" lon="6.43562">
        <ele>1359.44165</ele>
        <time>2010-11-27T15:41:53Z</time>
      </trkpt>
      <trkpt lat="45.91393" lon="6.43568">
        <ele>1360.883545</ele>
        <time>2010-11-27T15:42:03Z</time>
      </trkpt>
      <trkpt lat="45.91397" lon="6.43574">
        <ele>1361.844971</ele>
        <time>2010-11-27T15:42:13Z</time>
      </trkpt>
      <trkpt lat="45.914" lon="6.43579">
        <ele>1363.286865</ele>
        <time>2010-11-27T15:42:24Z</time>
      </trkpt>
      <trkpt lat="45.91406" lon="6.43584">
        <ele>1363.767334</ele>
        <time>2010-11-27T15:42:36Z</time>
      </trkpt>
      <trkpt lat="45.91409" lon="6.43591">
        <ele>1364.248047</ele>
        <time>2010-11-27T15:42:45Z</time>
      </trkpt>
      <trkpt lat="45.91413" lon="6.436">
        <ele>1364.248047</ele>
        <time>2010-11-27T15:42:56Z</time>
      </trkpt>
      <trkpt lat="45.91416" lon="6.43612">
        <ele>1364.72876</ele>
        <time>2010-11-27T15:43:07Z</time>
      </trkpt>
      <trkpt lat="45.91421" lon="6.43621">
        <ele>1365.209473</ele>
        <time>2010-11-27T15:43:18Z</time>
      </trkpt>
      <trkpt lat="45.91427" lon="6.43633">
        <ele>1365.209473</ele>
        <time>2010-11-27T15:43:31Z</time>
      </trkpt>
      <trkpt lat="45.91432" lon="6.4364">
        <ele>1365.209473</ele>
        <time>2010-11-27T15:43:42Z</time>
      </trkpt>
      <trkpt lat="45.91438" lon="6.43645">
        <ele>1367.13208</ele>
        <time>2010-11-27T15:43:54Z</time>
      </trkpt>
      <trkpt lat="45.91442" lon="6.43653">
        <ele>1368.093262</ele>
        <time>2010-11-27T15:44:04Z</time>
      </trkpt>
      <trkpt lat="45.91445" lon="6.4366">
        <ele>1369.054688</ele>
        <time>2010-11-27T15:44:14Z</time>
      </trkpt>
      <trkpt lat="45.91451" lon="6.43666">
        <ele>1370.015869</ele>
        <time>2010-11-27T15:44:26Z</time>
      </trkpt>
      <trkpt lat="45.91456" lon="6.4367">
        <ele>1371.457764</ele>
        <time>2010-11-27T15:44:37Z</time>
      </trkpt>
      <trkpt lat="45.91459" lon="6.43678">
        <ele>1371.457764</ele>
        <time>2010-11-27T15:44:49Z</time>
      </trkpt>
      <trkpt lat="45.91464" lon="6.43688">
        <ele>1372.419434</ele>
        <time>2010-11-27T15:45:01Z</time>
      </trkpt>
      <trkpt lat="45.9147" lon="6.43694">
        <ele>1372.900146</ele>
        <time>2010-11-27T15:45:10Z</time>
      </trkpt>
      <trkpt lat="45.91474" lon="6.437">
        <ele>1373.861328</ele>
        <time>2010-11-27T15:45:19Z</time>
      </trkpt>
      <trkpt lat="45.91478" lon="6.43706">
        <ele>1374.342041</ele>
        <time>2010-11-27T15:45:29Z</time>
      </trkpt>
      <trkpt lat="45.91482" lon="6.43712">
        <ele>1374.342041</ele>
        <time>2010-11-27T15:45:39Z</time>
      </trkpt>
      <trkpt lat="45.91488" lon="6.43716">
        <ele>1374.342041</ele>
        <time>2010-11-27T15:45:49Z</time>
      </trkpt>
      <trkpt lat="45.91493" lon="6.43721">
        <ele>1374.342041</ele>
        <time>2010-11-27T15:45:59Z</time>
      </trkpt>
      <trkpt lat="45.91501" lon="6.43724">
        <ele>1374.822754</ele>
        <time>2010-11-27T15:46:10Z</time>
      </trkpt>
      <trkpt lat="45.91507" lon="6.43732">
        <ele>1374.822754</ele>
        <time>2010-11-27T15:46:22Z</time>
      </trkpt>
      <trkpt lat="45.91511" lon="6.43737">
        <ele>1375.303223</ele>
        <time>2010-11-27T15:46:30Z</time>
      </trkpt>
      <trkpt lat="45.91516" lon="6.43739">
        <ele>1376.745361</ele>
        <time>2010-11-27T15:46:39Z</time>
      </trkpt>
      <trkpt lat="45.91522" lon="6.43739">
        <ele>1377.226074</ele>
        <time>2010-11-27T15:46:48Z</time>
      </trkpt>
      <trkpt lat="45.91527" lon="6.43743">
        <ele>1376.264648</ele>
        <time>2010-11-27T15:46:55Z</time>
      </trkpt>
      <trkpt lat="45.91532" lon="6.4375">
        <ele>1376.264648</ele>
        <time>2010-11-27T15:47:04Z</time>
      </trkpt>
      <trkpt lat="45.91537" lon="6.4376">
        <ele>1375.783936</ele>
        <time>2010-11-27T15:47:15Z</time>
      </trkpt>
      <trkpt lat="45.91541" lon="6.43766">
        <ele>1374.822754</ele>
        <time>2010-11-27T15:47:23Z</time>
      </trkpt>
      <trkpt lat="45.91545" lon="6.43775">
        <ele>1375.303223</ele>
        <time>2010-11-27T15:47:33Z</time>
      </trkpt>
      <trkpt lat="45.91549" lon="6.43783">
        <ele>1376.264648</ele>
        <time>2010-11-27T15:47:44Z</time>
      </trkpt>
      <trkpt lat="45.91552" lon="6.43789">
        <ele>1376.745361</ele>
        <time>2010-11-27T15:47:55Z</time>
      </trkpt>
      <trkpt lat="45.91558" lon="6.43792">
        <ele>1377.706543</ele>
        <time>2010-11-27T15:48:06Z</time>
      </trkpt>
      <trkpt lat="45.91562" lon="6.43795">
        <ele>1377.706543</ele>
        <time>2010-11-27T15:48:16Z</time>
      </trkpt>
      <trkpt lat="45.91566" lon="6.43803">
        <ele>1378.187256</ele>
        <time>2010-11-27T15:48:27Z</time>
      </trkpt>
      <trkpt lat="45.91568" lon="6.43814">
        <ele>1378.187256</ele>
        <time>2010-11-27T15:48:38Z</time>
      </trkpt>
      <trkpt lat="45.91569" lon="6.43825">
        <ele>1378.187256</ele>
        <time>2010-11-27T15:48:49Z</time>
      </trkpt>
      <trkpt lat="45.91571" lon="6.43833">
        <ele>1378.667969</ele>
        <time>2010-11-27T15:48:59Z</time>
      </trkpt>
      <trkpt lat="45.91575" lon="6.43842">
        <ele>1379.148438</ele>
        <time>2010-11-27T15:49:10Z</time>
      </trkpt>
      <trkpt lat="45.91577" lon="6.43852">
        <ele>1379.62915</ele>
        <time>2010-11-27T15:49:23Z</time>
      </trkpt>
      <trkpt lat="45.91577" lon="6.43863">
        <ele>1380.590576</ele>
        <time>2010-11-27T15:49:34Z</time>
      </trkpt>
      <trkpt lat="45.91578" lon="6.43877">
        <ele>1379.62915</ele>
        <time>2010-11-27T15:49:47Z</time>
      </trkpt>
      <trkpt lat="45.91578" lon="6.4389">
        <ele>1378.187256</ele>
        <time>2010-11-27T15:49:58Z</time>
      </trkpt>
      <trkpt lat="45.9158" lon="6.439">
        <ele>1378.187256</ele>
        <time>2010-11-27T15:50:09Z</time>
      </trkpt>
      <trkpt lat="45.91586" lon="6.43908">
        <ele>1378.667969</ele>
        <time>2010-11-27T15:50:21Z</time>
      </trkpt>
      <trkpt lat="45.91592" lon="6.43914">
        <ele>1378.667969</ele>
        <time>2010-11-27T15:50:32Z</time>
      </trkpt>
      <trkpt lat="45.916" lon="6.43919">
        <ele>1378.667969</ele>
        <time>2010-11-27T15:50:44Z</time>
      </trkpt>
      <trkpt lat="45.9161" lon="6.43925">
        <ele>1378.667969</ele>
        <time>2010-11-27T15:50:58Z</time>
      </trkpt>
      <trkpt lat="45.91618" lon="6.43931">
        <ele>1378.667969</ele>
        <time>2010-11-27T15:51:11Z</time>
      </trkpt>
      <trkpt lat="45.91626" lon="6.43939">
        <ele>1378.187256</ele>
        <time>2010-11-27T15:51:23Z</time>
      </trkpt>
      <trkpt lat="45.91632" lon="6.43946">
        <ele>1378.187256</ele>
        <time>2010-11-27T15:51:34Z</time>
      </trkpt>
      <trkpt lat="45.91638" lon="6.43952">
        <ele>1377.706543</ele>
        <time>2010-11-27T15:51:44Z</time>
      </trkpt>
      <trkpt lat="45.91644" lon="6.4396">
        <ele>1376.745361</ele>
        <time>2010-11-27T15:51:56Z</time>
      </trkpt>
      <trkpt lat="45.9165" lon="6.43967">
        <ele>1376.264648</ele>
        <time>2010-11-27T15:52:07Z</time>
      </trkpt>
      <trkpt lat="45.91655" lon="6.43973">
        <ele>1375.303223</ele>
        <time>2010-11-27T15:52:18Z</time>
      </trkpt>
      <trkpt lat="45.9166" lon="6.43978">
        <ele>1375.783936</ele>
        <time>2010-11-27T15:52:30Z</time>
      </trkpt>
      <trkpt lat="45.91665" lon="6.43982">
        <ele>1376.264648</ele>
        <time>2010-11-27T15:52:41Z</time>
      </trkpt>
      <trkpt lat="45.91671" lon="6.43985">
        <ele>1377.226074</ele>
        <time>2010-11-27T15:52:52Z</time>
      </trkpt>
      <trkpt lat="45.91677" lon="6.43989">
        <ele>1377.226074</ele>
        <time>2010-11-27T15:53:05Z</time>
      </trkpt>
      <trkpt lat="45.91683" lon="6.43993">
        <ele>1378.187256</ele>
        <time>2010-11-27T15:53:17Z</time>
      </trkpt>
      <trkpt lat="45.91688" lon="6.43996">
        <ele>1378.667969</ele>
        <time>2010-11-27T15:53:27Z</time>
      </trkpt>
      <trkpt lat="45.91692" lon="6.43999">
        <ele>1378.187256</ele>
        <time>2010-11-27T15:53:37Z</time>
      </trkpt>
      <trkpt lat="45.91696" lon="6.44002">
        <ele>1378.667969</ele>
        <time>2010-11-27T15:53:47Z</time>
      </trkpt>
      <trkpt lat="45.91699" lon="6.44004">
        <ele>1379.62915</ele>
        <time>2010-11-27T15:53:58Z</time>
      </trkpt>
      <trkpt lat="45.917" lon="6.44006">
        <ele>1379.62915</ele>
        <time>2010-11-27T15:54:06Z</time>
      </trkpt>
      <trkpt lat="45.91701" lon="6.44011">
        <ele>1380.590576</ele>
        <time>2010-11-27T15:54:14Z</time>
      </trkpt>
      <trkpt lat="45.91701" lon="6.44014">
        <ele>1382.032471</ele>
        <time>2010-11-27T15:54:25Z</time>
      </trkpt>
      <trkpt lat="45.91705" lon="6.44016">
        <ele>1383.474365</ele>
        <time>2010-11-27T15:54:35Z</time>
      </trkpt>
      <trkpt lat="45.91708" lon="6.44021">
        <ele>1383.955078</ele>
        <time>2010-11-27T15:54:44Z</time>
      </trkpt>
      <trkpt lat="45.9171" lon="6.44025">
        <ele>1385.877686</ele>
        <time>2010-11-27T15:54:52Z</time>
      </trkpt>
      <trkpt lat="45.91712" lon="6.44028">
        <ele>1386.358398</ele>
        <time>2010-11-27T15:55:02Z</time>
      </trkpt>
      <trkpt lat="45.91715" lon="6.44031">
        <ele>1387.800293</ele>
        <time>2010-11-27T15:55:11Z</time>
      </trkpt>
      <trkpt lat="45.91717" lon="6.44035">
        <ele>1388.28125</ele>
        <time>2010-11-27T15:55:20Z</time>
      </trkpt>
      <trkpt lat="45.9172" lon="6.44038">
        <ele>1389.242432</ele>
        <time>2010-11-27T15:55:31Z</time>
      </trkpt>
      <trkpt lat="45.91722" lon="6.44042">
        <ele>1390.684326</ele>
        <time>2010-11-27T15:55:42Z</time>
      </trkpt>
      <trkpt lat="45.91724" lon="6.44045">
        <ele>1393.087646</ele>
        <time>2010-11-27T15:55:53Z</time>
      </trkpt>
      <trkpt lat="45.91727" lon="6.44048">
        <ele>1393.568359</ele>
        <time>2010-11-27T15:56:03Z</time>
      </trkpt>
      <trkpt lat="45.91729" lon="6.44051">
        <ele>1395.010254</ele>
        <time>2010-11-27T15:56:13Z</time>
      </trkpt>
      <trkpt lat="45.91731" lon="6.44054">
        <ele>1396.452393</ele>
        <time>2010-11-27T15:56:22Z</time>
      </trkpt>
      <trkpt lat="45.91734" lon="6.44058">
        <ele>1398.374756</ele>
        <time>2010-11-27T15:56:35Z</time>
      </trkpt>
      <trkpt lat="45.91737" lon="6.44062">
        <ele>1398.855469</ele>
        <time>2010-11-27T15:56:45Z</time>
      </trkpt>
      <trkpt lat="45.91741" lon="6.44066">
        <ele>1400.297607</ele>
        <time>2010-11-27T15:56:56Z</time>
      </trkpt>
      <trkpt lat="45.91743" lon="6.44069">
        <ele>1401.258789</ele>
        <time>2010-11-27T15:57:07Z</time>
      </trkpt>
      <trkpt lat="45.91745" lon="6.44072">
        <ele>1402.219971</ele>
        <time>2010-11-27T15:57:18Z</time>
      </trkpt>
      <trkpt lat="45.91748" lon="6.44074">
        <ele>1403.662109</ele>
        <time>2010-11-27T15:57:29Z</time>
      </trkpt>
      <trkpt lat="45.91751" lon="6.44077">
        <ele>1405.104248</ele>
        <time>2010-11-27T15:57:41Z</time>
      </trkpt>
      <trkpt lat="45.91755" lon="6.4408">
        <ele>1408.46875</ele>
        <time>2010-11-27T15:57:54Z</time>
      </trkpt>
      <trkpt lat="45.91757" lon="6.44083">
        <ele>1408.949463</ele>
        <time>2010-11-27T15:58:05Z</time>
      </trkpt>
      <trkpt lat="45.91759" lon="6.44087">
        <ele>1410.87207</ele>
        <time>2010-11-27T15:58:16Z</time>
      </trkpt>
      <trkpt lat="45.91759" lon="6.44095">
        <ele>1412.794678</ele>
        <time>2010-11-27T15:58:30Z</time>
      </trkpt>
      <trkpt lat="45.91758" lon="6.44101">
        <ele>1415.678711</ele>
        <time>2010-11-27T15:58:44Z</time>
      </trkpt>
      <trkpt lat="45.91758" lon="6.44108">
        <ele>1417.601074</ele>
        <time>2010-11-27T15:58:56Z</time>
      </trkpt>
      <trkpt lat="45.91758" lon="6.44115">
        <ele>1418.5625</ele>
        <time>2010-11-27T15:59:09Z</time>
      </trkpt>
      <trkpt lat="45.91758" lon="6.44122">
        <ele>1420.485352</ele>
        <time>2010-11-27T15:59:21Z</time>
      </trkpt>
      <trkpt lat="45.91758" lon="6.44128">
        <ele>1421.446533</ele>
        <time>2010-11-27T15:59:32Z</time>
      </trkpt>
      <trkpt lat="45.91758" lon="6.44135">
        <ele>1422.888672</ele>
        <time>2010-11-27T15:59:45Z</time>
      </trkpt>
      <trkpt lat="45.91759" lon="6.44141">
        <ele>1424.811279</ele>
        <time>2010-11-27T15:59:56Z</time>
      </trkpt>
      <trkpt lat="45.91762" lon="6.44144">
        <ele>1426.253174</ele>
        <time>2010-11-27T16:00:07Z</time>
      </trkpt>
      <trkpt lat="45.91768" lon="6.44144">
        <ele>1427.695068</ele>
        <time>2010-11-27T16:00:19Z</time>
      </trkpt>
      <trkpt lat="45.91773" lon="6.44144">
        <ele>1428.656494</ele>
        <time>2010-11-27T16:00:30Z</time>
      </trkpt>
      <trkpt lat="45.91777" lon="6.44145">
        <ele>1430.098389</ele>
        <time>2010-11-27T16:00:40Z</time>
      </trkpt>
      <trkpt lat="45.91783" lon="6.44144">
        <ele>1431.059814</ele>
        <time>2010-11-27T16:00:53Z</time>
      </trkpt>
      <trkpt lat="45.91785" lon="6.44142">
        <ele>1432.020996</ele>
        <time>2010-11-27T16:01:03Z</time>
      </trkpt>
      <trkpt lat="45.91791" lon="6.44138">
        <ele>1433.462891</ele>
        <time>2010-11-27T16:01:15Z</time>
      </trkpt>
      <trkpt lat="45.91798" lon="6.44137">
        <ele>1435.385498</ele>
        <time>2010-11-27T16:01:26Z</time>
      </trkpt>
      <trkpt lat="45.91803" lon="6.44137">
        <ele>1435.866211</ele>
        <time>2010-11-27T16:01:35Z</time>
      </trkpt>
      <trkpt lat="45.91808" lon="6.44135">
        <ele>1436.827637</ele>
        <time>2010-11-27T16:01:44Z</time>
      </trkpt>
      <trkpt lat="45.91815" lon="6.44133">
        <ele>1437.30835</ele>
        <time>2010-11-27T16:01:56Z</time>
      </trkpt>
      <trkpt lat="45.91821" lon="6.44131">
        <ele>1437.789063</ele>
        <time>2010-11-27T16:02:06Z</time>
      </trkpt>
      <trkpt lat="45.91827" lon="6.44128">
        <ele>1437.789063</ele>
        <time>2010-11-27T16:02:16Z</time>
      </trkpt>
      <trkpt lat="45.91828" lon="6.44123">
        <ele>1437.789063</ele>
        <time>2010-11-27T16:02:23Z</time>
      </trkpt>
      <trkpt lat="45.91831" lon="6.44117">
        <ele>1437.30835</ele>
        <time>2010-11-27T16:02:32Z</time>
      </trkpt>
      <trkpt lat="45.91834" lon="6.44114">
        <ele>1436.347168</ele>
        <time>2010-11-27T16:18:07Z</time>
      </trkpt>
      <trkpt lat="45.91838" lon="6.44109">
        <ele>1436.347168</ele>
        <time>2010-11-27T16:18:14Z</time>
      </trkpt>
      <trkpt lat="45.91841" lon="6.44102">
        <ele>1436.347168</ele>
        <time>2010-11-27T16:18:23Z</time>
      </trkpt>
      <trkpt lat="45.91842" lon="6.44092">
        <ele>1435.866211</ele>
        <time>2010-11-27T16:18:33Z</time>
      </trkpt>
      <trkpt lat="45.91843" lon="6.44081">
        <ele>1437.30835</ele>
        <time>2010-11-27T16:18:47Z</time>
      </trkpt>
      <trkpt lat="45.91843" lon="6.44075">
        <ele>1438.269775</ele>
        <time>2010-11-27T16:18:57Z</time>
      </trkpt>
      <trkpt lat="45.91848" lon="6.44068">
        <ele>1438.750488</ele>
        <time>2010-11-27T16:19:08Z</time>
      </trkpt>
      <trkpt lat="45.91854" lon="6.44061">
        <ele>1439.71167</ele>
        <time>2010-11-27T16:19:21Z</time>
      </trkpt>
      <trkpt lat="45.91858" lon="6.44054">
        <ele>1440.192383</ele>
        <time>2010-11-27T16:19:31Z</time>
      </trkpt>
      <trkpt lat="45.91863" lon="6.44046">
        <ele>1440.192383</ele>
        <time>2010-11-27T16:19:41Z</time>
      </trkpt>
      <trkpt lat="45.91869" lon="6.4404">
        <ele>1440.672852</ele>
        <time>2010-11-27T16:19:49Z</time>
      </trkpt>
      <trkpt lat="45.91876" lon="6.44034">
        <ele>1440.192383</ele>
        <time>2010-11-27T16:19:58Z</time>
      </trkpt>
      <trkpt lat="45.91881" lon="6.44029">
        <ele>1439.230957</ele>
        <time>2010-11-27T16:20:07Z</time>
      </trkpt>
      <trkpt lat="45.91888" lon="6.44026">
        <ele>1439.230957</ele>
        <time>2010-11-27T16:20:16Z</time>
      </trkpt>
      <trkpt lat="45.91894" lon="6.44024">
        <ele>1439.71167</ele>
        <time>2010-11-27T16:20:25Z</time>
      </trkpt>
      <trkpt lat="45.919" lon="6.44021">
        <ele>1440.672852</ele>
        <time>2010-11-27T16:20:35Z</time>
      </trkpt>
      <trkpt lat="45.91907" lon="6.44013">
        <ele>1441.153564</ele>
        <time>2010-11-27T16:20:45Z</time>
      </trkpt>
      <trkpt lat="45.91913" lon="6.44003">
        <ele>1440.672852</ele>
        <time>2010-11-27T16:20:54Z</time>
      </trkpt>
      <trkpt lat="45.91918" lon="6.43995">
        <ele>1441.634277</ele>
        <time>2010-11-27T16:21:04Z</time>
      </trkpt>
      <trkpt lat="45.91924" lon="6.43988">
        <ele>1441.634277</ele>
        <time>2010-11-27T16:21:15Z</time>
      </trkpt>
      <trkpt lat="45.91929" lon="6.4398">
        <ele>1442.595703</ele>
        <time>2010-11-27T16:21:27Z</time>
      </trkpt>
      <trkpt lat="45.91933" lon="6.43972">
        <ele>1443.556885</ele>
        <time>2010-11-27T16:21:39Z</time>
      </trkpt>
      <trkpt lat="45.91937" lon="6.43968">
        <ele>1444.998779</ele>
        <time>2010-11-27T16:21:49Z</time>
      </trkpt>
      <trkpt lat="45.91942" lon="6.43963">
        <ele>1445.479492</ele>
        <time>2010-11-27T16:22:00Z</time>
      </trkpt>
      <trkpt lat="45.91947" lon="6.43956">
        <ele>1445.960205</ele>
        <time>2010-11-27T16:22:11Z</time>
      </trkpt>
      <trkpt lat="45.91953" lon="6.43952">
        <ele>1446.921387</ele>
        <time>2010-11-27T16:22:23Z</time>
      </trkpt>
      <trkpt lat="45.91957" lon="6.43948">
        <ele>1448.843994</ele>
        <time>2010-11-27T16:22:32Z</time>
      </trkpt>
      <trkpt lat="45.91961" lon="6.43945">
        <ele>1450.286133</ele>
        <time>2010-11-27T16:22:41Z</time>
      </trkpt>
      <trkpt lat="45.91966" lon="6.43943">
        <ele>1451.728027</ele>
        <time>2010-11-27T16:22:52Z</time>
      </trkpt>
      <trkpt lat="45.91972" lon="6.43938">
        <ele>1452.689453</ele>
        <time>2010-11-27T16:23:04Z</time>
      </trkpt>
      <trkpt lat="45.91978" lon="6.43933">
        <ele>1453.650879</ele>
        <time>2010-11-27T16:23:16Z</time>
      </trkpt>
      <trkpt lat="45.91984" lon="6.43928">
        <ele>1455.573486</ele>
        <time>2010-11-27T16:23:27Z</time>
      </trkpt>
      <trkpt lat="45.9199" lon="6.43924">
        <ele>1456.534668</ele>
        <time>2010-11-27T16:23:39Z</time>
      </trkpt>
      <trkpt lat="45.91997" lon="6.43922">
        <ele>1457.496094</ele>
        <time>2010-11-27T16:23:52Z</time>
      </trkpt>
      <trkpt lat="45.92002" lon="6.4392">
        <ele>1458.457275</ele>
        <time>2010-11-27T16:24:02Z</time>
      </trkpt>
      <trkpt lat="45.92008" lon="6.43914">
        <ele>1460.860596</ele>
        <time>2010-11-27T16:24:15Z</time>
      </trkpt>
      <trkpt lat="45.92015" lon="6.43912">
        <ele>1461.341309</ele>
        <time>2010-11-27T16:24:25Z</time>
      </trkpt>
      <trkpt lat="45.92024" lon="6.43909">
        <ele>1462.30249</ele>
        <time>2010-11-27T16:24:37Z</time>
      </trkpt>
      <trkpt lat="45.92031" lon="6.43905">
        <ele>1463.263916</ele>
        <time>2010-11-27T16:24:47Z</time>
      </trkpt>
      <trkpt lat="45.92038" lon="6.439">
        <ele>1464.225098</ele>
        <time>2010-11-27T16:24:57Z</time>
      </trkpt>
      <trkpt lat="45.92045" lon="6.43893">
        <ele>1464.705811</ele>
        <time>2010-11-27T16:25:09Z</time>
      </trkpt>
      <trkpt lat="45.9205" lon="6.43885">
        <ele>1465.186523</ele>
        <time>2010-11-27T16:25:20Z</time>
      </trkpt>
      <trkpt lat="45.92056" lon="6.43879">
        <ele>1466.628418</ele>
        <time>2010-11-27T16:25:31Z</time>
      </trkpt>
      <trkpt lat="45.92062" lon="6.43871">
        <ele>1467.5896</ele>
        <time>2010-11-27T16:25:42Z</time>
      </trkpt>
      <trkpt lat="45.92067" lon="6.43863">
        <ele>1468.070557</ele>
        <time>2010-11-27T16:25:53Z</time>
      </trkpt>
      <trkpt lat="45.92072" lon="6.43853">
        <ele>1469.512695</ele>
        <time>2010-11-27T16:26:05Z</time>
      </trkpt>
      <trkpt lat="45.92079" lon="6.43844">
        <ele>1468.55127</ele>
        <time>2010-11-27T16:26:16Z</time>
      </trkpt>
      <trkpt lat="45.92084" lon="6.43839">
        <ele>1468.55127</ele>
        <time>2010-11-27T16:26:25Z</time>
      </trkpt>
      <trkpt lat="45.9209" lon="6.43834">
        <ele>1469.031982</ele>
        <time>2010-11-27T16:26:35Z</time>
      </trkpt>
      <trkpt lat="45.92097" lon="6.43832">
        <ele>1469.031982</ele>
        <time>2010-11-27T16:26:43Z</time>
      </trkpt>
      <trkpt lat="45.92104" lon="6.43829">
        <ele>1469.031982</ele>
        <time>2010-11-27T16:26:52Z</time>
      </trkpt>
      <trkpt lat="45.92111" lon="6.43826">
        <ele>1468.55127</ele>
        <time>2010-11-27T16:27:01Z</time>
      </trkpt>
      <trkpt lat="45.92113" lon="6.43824">
        <ele>1468.55127</ele>
        <time>2010-11-27T16:27:08Z</time>
      </trkpt>
      <trkpt lat="45.92118" lon="6.43821">
        <ele>1468.55127</ele>
        <time>2010-11-27T16:31:57Z</time>
      </trkpt>
      <trkpt lat="45.92125" lon="6.43819">
        <ele>1467.109131</ele>
        <time>2010-11-27T16:32:05Z</time>
      </trkpt>
      <trkpt lat="45.92131" lon="6.43817">
        <ele>1467.109131</ele>
        <time>2010-11-27T16:32:14Z</time>
      </trkpt>
      <trkpt lat="45.92136" lon="6.43815">
        <ele>1466.147705</ele>
        <time>2010-11-27T16:32:22Z</time>
      </trkpt>
      <trkpt lat="45.92139" lon="6.43813">
        <ele>1465.667236</ele>
        <time>2010-11-27T16:32:31Z</time>
      </trkpt>
      <trkpt lat="45.92143" lon="6.43812">
        <ele>1464.705811</ele>
        <time>2010-11-27T16:32:37Z</time>
      </trkpt>
      <trkpt lat="45.92151" lon="6.43812">
        <ele>1462.783203</ele>
        <time>2010-11-27T16:32:46Z</time>
      </trkpt>
      <trkpt lat="45.9216" lon="6.4381">
        <ele>1459.89917</ele>
        <time>2010-11-27T16:32:55Z</time>
      </trkpt>
      <trkpt lat="45.9217" lon="6.43805">
        <ele>1457.976807</ele>
        <time>2010-11-27T16:33:04Z</time>
      </trkpt>
      <trkpt lat="45.9218" lon="6.438">
        <ele>1457.015381</ele>
        <time>2010-11-27T16:33:14Z</time>
      </trkpt>
      <trkpt lat="45.9219" lon="6.43799">
        <ele>1456.053955</ele>
        <time>2010-11-27T16:33:24Z</time>
      </trkpt>
      <trkpt lat="45.92198" lon="6.43798">
        <ele>1456.053955</ele>
        <time>2010-11-27T16:33:31Z</time>
      </trkpt>
      <trkpt lat="45.92205" lon="6.43795">
        <ele>1455.573486</ele>
        <time>2010-11-27T16:33:39Z</time>
      </trkpt>
      <trkpt lat="45.92214" lon="6.4379">
        <ele>1454.131592</ele>
        <time>2010-11-27T16:33:49Z</time>
      </trkpt>
      <trkpt lat="45.92223" lon="6.43785">
        <ele>1453.170166</ele>
        <time>2010-11-27T16:33:59Z</time>
      </trkpt>
      <trkpt lat="45.92232" lon="6.4378">
        <ele>1451.728027</ele>
        <time>2010-11-27T16:34:08Z</time>
      </trkpt>
      <trkpt lat="45.92241" lon="6.43776">
        <ele>1450.766602</ele>
        <time>2010-11-27T16:34:19Z</time>
      </trkpt>
      <trkpt lat="45.9225" lon="6.43774">
        <ele>1448.363281</ele>
        <time>2010-11-27T16:34:29Z</time>
      </trkpt>
      <trkpt lat="45.92257" lon="6.43771">
        <ele>1446.921387</ele>
        <time>2010-11-27T16:34:38Z</time>
      </trkpt>
      <trkpt lat="45.92265" lon="6.43766">
        <ele>1445.960205</ele>
        <time>2010-11-27T16:34:49Z</time>
      </trkpt>
      <trkpt lat="45.92273" lon="6.43761">
        <ele>1444.518066</ele>
        <time>2010-11-27T16:35:01Z</time>
      </trkpt>
      <trkpt lat="45.92279" lon="6.4376">
        <ele>1444.037598</ele>
        <time>2010-11-27T16:35:08Z</time>
      </trkpt>
      <trkpt lat="45.92286" lon="6.43757">
        <ele>1443.556885</ele>
        <time>2010-11-27T16:35:16Z</time>
      </trkpt>
      <trkpt lat="45.92294" lon="6.43754">
        <ele>1443.556885</ele>
        <time>2010-11-27T16:35:25Z</time>
      </trkpt>
      <trkpt lat="45.92296" lon="6.43753">
        <ele>1443.076172</ele>
        <time>2010-11-27T16:35:34Z</time>
      </trkpt>
      <trkpt lat="45.92304" lon="6.43747">
        <ele>1442.11499</ele>
        <time>2010-11-27T16:35:44Z</time>
      </trkpt>
      <trkpt lat="45.92309" lon="6.43736">
        <ele>1441.153564</ele>
        <time>2010-11-27T16:35:55Z</time>
      </trkpt>
      <trkpt lat="45.92313" lon="6.43727">
        <ele>1439.230957</ele>
        <time>2010-11-27T16:36:05Z</time>
      </trkpt>
      <trkpt lat="45.92317" lon="6.43715">
        <ele>1437.30835</ele>
        <time>2010-11-27T16:36:16Z</time>
      </trkpt>
      <trkpt lat="45.9232" lon="6.43705">
        <ele>1436.827637</ele>
        <time>2010-11-27T16:36:26Z</time>
      </trkpt>
      <trkpt lat="45.92322" lon="6.43694">
        <ele>1434.905029</ele>
        <time>2010-11-27T16:36:36Z</time>
      </trkpt>
      <trkpt lat="45.92323" lon="6.43684">
        <ele>1433.943604</ele>
        <time>2010-11-27T16:36:45Z</time>
      </trkpt>
      <trkpt lat="45.92326" lon="6.43673">
        <ele>1432.020996</ele>
        <time>2010-11-27T16:36:56Z</time>
      </trkpt>
      <trkpt lat="45.92331" lon="6.43661">
        <ele>1429.136963</ele>
        <time>2010-11-27T16:37:08Z</time>
      </trkpt>
      <trkpt lat="45.92334" lon="6.43654">
        <ele>1428.175781</ele>
        <time>2010-11-27T16:37:17Z</time>
      </trkpt>
      <trkpt lat="45.92335" lon="6.43649">
        <ele>1426.253174</ele>
        <time>2010-11-27T16:37:25Z</time>
      </trkpt>
      <trkpt lat="45.92335" lon="6.43641">
        <ele>1424.811279</ele>
        <time>2010-11-27T16:37:33Z</time>
      </trkpt>
      <trkpt lat="45.92336" lon="6.43631">
        <ele>1423.849854</ele>
        <time>2010-11-27T16:37:43Z</time>
      </trkpt>
      <trkpt lat="45.92338" lon="6.43622">
        <ele>1422.407959</ele>
        <time>2010-11-27T16:37:53Z</time>
      </trkpt>
      <trkpt lat="45.92339" lon="6.43612">
        <ele>1420.485352</ele>
        <time>2010-11-27T16:38:04Z</time>
      </trkpt>
      <trkpt lat="45.92339" lon="6.43604">
        <ele>1419.523926</ele>
        <time>2010-11-27T16:38:15Z</time>
      </trkpt>
      <trkpt lat="45.9234" lon="6.43598">
        <ele>1419.043213</ele>
        <time>2010-11-27T16:38:25Z</time>
      </trkpt>
      <trkpt lat="45.9234" lon="6.4359">
        <ele>1417.601074</ele>
        <time>2010-11-27T16:38:33Z</time>
      </trkpt>
      <trkpt lat="45.9234" lon="6.43575">
        <ele>1416.15918</ele>
        <time>2010-11-27T16:38:46Z</time>
      </trkpt>
      <trkpt lat="45.92344" lon="6.43565">
        <ele>1414.236572</ele>
        <time>2010-11-27T16:38:56Z</time>
      </trkpt>
      <trkpt lat="45.92348" lon="6.43556">
        <ele>1412.794678</ele>
        <time>2010-11-27T16:39:05Z</time>
      </trkpt>
      <trkpt lat="45.92349" lon="6.43547">
        <ele>1411.833496</ele>
        <time>2010-11-27T16:39:16Z</time>
      </trkpt>
      <trkpt lat="45.92343" lon="6.43549">
        <ele>1410.391357</ele>
        <time>2010-11-27T16:39:25Z</time>
      </trkpt>
      <trkpt lat="45.92336" lon="6.43557">
        <ele>1408.949463</ele>
        <time>2010-11-27T16:39:35Z</time>
      </trkpt>
      <trkpt lat="45.92329" lon="6.43567">
        <ele>1407.988281</ele>
        <time>2010-11-27T16:39:46Z</time>
      </trkpt>
      <trkpt lat="45.92322" lon="6.43575">
        <ele>1407.026855</ele>
        <time>2010-11-27T16:39:56Z</time>
      </trkpt>
      <trkpt lat="45.92318" lon="6.43578">
        <ele>1405.104248</ele>
        <time>2010-11-27T16:44:07Z</time>
      </trkpt>
      <trkpt lat="45.92313" lon="6.43584">
        <ele>1403.662109</ele>
        <time>2010-11-27T16:44:15Z</time>
      </trkpt>
      <trkpt lat="45.92305" lon="6.43594">
        <ele>1402.219971</ele>
        <time>2010-11-27T16:44:24Z</time>
      </trkpt>
      <trkpt lat="45.92292" lon="6.43605">
        <ele>1399.336182</ele>
        <time>2010-11-27T16:44:37Z</time>
      </trkpt>
      <trkpt lat="45.92281" lon="6.43616">
        <ele>1398.374756</ele>
        <time>2010-11-27T16:44:48Z</time>
      </trkpt>
      <trkpt lat="45.92272" lon="6.43623">
        <ele>1395.490967</ele>
        <time>2010-11-27T16:44:57Z</time>
      </trkpt>
      <trkpt lat="45.92261" lon="6.43624">
        <ele>1394.049072</ele>
        <time>2010-11-27T16:45:06Z</time>
      </trkpt>
      <trkpt lat="45.92248" lon="6.43623">
        <ele>1391.645752</ele>
        <time>2010-11-27T16:45:18Z</time>
      </trkpt>
      <trkpt lat="45.9224" lon="6.43618">
        <ele>1388.761963</ele>
        <time>2010-11-27T16:45:26Z</time>
      </trkpt>
      <trkpt lat="45.92232" lon="6.43615">
        <ele>1388.28125</ele>
        <time>2010-11-27T16:45:33Z</time>
      </trkpt>
      <trkpt lat="45.92229" lon="6.43613">
        <ele>1388.28125</ele>
        <time>2010-11-27T16:45:36Z</time>
      </trkpt>
      <trkpt lat="45.92218" lon="6.43608">
        <ele>1386.838867</ele>
        <time>2010-11-27T16:45:45Z</time>
      </trkpt>
      <trkpt lat="45.9221" lon="6.43604">
        <ele>1384.916504</ele>
        <time>2010-11-27T16:45:54Z</time>
      </trkpt>
      <trkpt lat="45.922" lon="6.43599">
        <ele>1382.993652</ele>
        <time>2010-11-27T16:46:04Z</time>
      </trkpt>
      <trkpt lat="45.92191" lon="6.43588">
        <ele>1381.551758</ele>
        <time>2010-11-27T16:46:15Z</time>
      </trkpt>
      <trkpt lat="45.92189" lon="6.43586">
        <ele>1380.590576</ele>
        <time>2010-11-27T16:46:17Z</time>
      </trkpt>
      <trkpt lat="45.92181" lon="6.43578">
        <ele>1378.187256</ele>
        <time>2010-11-27T16:46:25Z</time>
      </trkpt>
      <trkpt lat="45.92174" lon="6.43571">
        <ele>1377.226074</ele>
        <time>2010-11-27T16:46:32Z</time>
      </trkpt>
      <trkpt lat="45.92166" lon="6.4356">
        <ele>1375.783936</ele>
        <time>2010-11-27T16:46:42Z</time>
      </trkpt>
      <trkpt lat="45.92154" lon="6.43547">
        <ele>1373.861328</ele>
        <time>2010-11-27T16:46:53Z</time>
      </trkpt>
      <trkpt lat="45.92143" lon="6.43536">
        <ele>1371.457764</ele>
        <time>2010-11-27T16:47:04Z</time>
      </trkpt>
      <trkpt lat="45.9213" lon="6.43523">
        <ele>1369.5354</ele>
        <time>2010-11-27T16:47:16Z</time>
      </trkpt>
      <trkpt lat="45.92121" lon="6.43515">
        <ele>1368.573975</ele>
        <time>2010-11-27T16:47:25Z</time>
      </trkpt>
      <trkpt lat="45.92107" lon="6.43512">
        <ele>1367.13208</ele>
        <time>2010-11-27T16:47:37Z</time>
      </trkpt>
      <trkpt lat="45.92101" lon="6.43514">
        <ele>1365.690186</ele>
        <time>2010-11-27T16:47:46Z</time>
      </trkpt>
      <trkpt lat="45.92096" lon="6.43514">
        <ele>1364.248047</ele>
        <time>2010-11-27T16:47:54Z</time>
      </trkpt>
      <trkpt lat="45.92086" lon="6.43518">
        <ele>1362.806152</ele>
        <time>2010-11-27T16:48:03Z</time>
      </trkpt>
      <trkpt lat="45.92085" lon="6.43518">
        <ele>1362.325439</ele>
        <time>2010-11-27T16:48:04Z</time>
      </trkpt>
      <trkpt lat="45.9208" lon="6.43519">
        <ele>1361.364258</ele>
        <time>2010-11-27T16:48:08Z</time>
      </trkpt>
      <trkpt lat="45.92065" lon="6.43527">
        <ele>1357.999756</ele>
        <time>2010-11-27T16:48:20Z</time>
      </trkpt>
      <trkpt lat="45.92053" lon="6.43536">
        <ele>1355.596191</ele>
        <time>2010-11-27T16:48:30Z</time>
      </trkpt>
      <trkpt lat="45.92042" lon="6.4354">
        <ele>1353.673584</ele>
        <time>2010-11-27T16:48:40Z</time>
      </trkpt>
      <trkpt lat="45.92027" lon="6.43544">
        <ele>1352.231445</ele>
        <time>2010-11-27T16:48:51Z</time>
      </trkpt>
      <trkpt lat="45.92017" lon="6.43548">
        <ele>1350.789551</ele>
        <time>2010-11-27T16:49:00Z</time>
      </trkpt>
      <trkpt lat="45.92009" lon="6.43553">
        <ele>1349.347656</ele>
        <time>2010-11-27T16:49:07Z</time>
      </trkpt>
      <trkpt lat="45.92007" lon="6.43554">
        <ele>1348.866943</ele>
        <time>2010-11-27T16:49:09Z</time>
      </trkpt>
      <trkpt lat="45.91995" lon="6.43562">
        <ele>1346.944336</ele>
        <time>2010-11-27T16:49:19Z</time>
      </trkpt>
      <trkpt lat="45.91982" lon="6.43566">
        <ele>1344.060547</ele>
        <time>2010-11-27T16:49:29Z</time>
      </trkpt>
      <trkpt lat="45.9197" lon="6.43563">
        <ele>1342.137939</ele>
        <time>2010-11-27T16:49:40Z</time>
      </trkpt>
      <trkpt lat="45.91958" lon="6.43552">
        <ele>1340.215332</ele>
        <time>2010-11-27T16:49:52Z</time>
      </trkpt>
      <trkpt lat="45.91953" lon="6.43545">
        <ele>1338.773193</ele>
        <time>2010-11-27T16:49:58Z</time>
      </trkpt>
      <trkpt lat="45.91947" lon="6.43532">
        <ele>1336.850342</ele>
        <time>2010-11-27T16:50:07Z</time>
      </trkpt>
      <trkpt lat="45.91938" lon="6.43517">
        <ele>1333.966553</ele>
        <time>2010-11-27T16:50:18Z</time>
      </trkpt>
      <trkpt lat="45.9193" lon="6.43508">
        <ele>1331.082764</ele>
        <time>2010-11-27T16:50:27Z</time>
      </trkpt>
      <trkpt lat="45.91923" lon="6.43495">
        <ele>1330.121338</ele>
        <time>2010-11-27T16:50:38Z</time>
      </trkpt>
      <trkpt lat="45.91915" lon="6.43477">
        <ele>1327.718018</ele>
        <time>2010-11-27T16:51:15Z</time>
      </trkpt>
      <trkpt lat="45.91913" lon="6.43469">
        <ele>1327.237549</ele>
        <time>2010-11-27T16:51:22Z</time>
      </trkpt>
      <trkpt lat="45.91912" lon="6.43446">
        <ele>1324.353516</ele>
        <time>2010-11-27T16:51:34Z</time>
      </trkpt>
      <trkpt lat="45.91913" lon="6.43428">
        <ele>1321.949951</ele>
        <time>2010-11-27T16:51:45Z</time>
      </trkpt>
      <trkpt lat="45.91914" lon="6.43411">
        <ele>1319.066162</ele>
        <time>2010-11-27T16:51:54Z</time>
      </trkpt>
      <trkpt lat="45.91915" lon="6.43395">
        <ele>1317.624023</ele>
        <time>2010-11-27T16:52:04Z</time>
      </trkpt>
      <trkpt lat="45.91916" lon="6.43382">
        <ele>1316.182129</ele>
        <time>2010-11-27T16:52:12Z</time>
      </trkpt>
      <trkpt lat="45.91917" lon="6.43365">
        <ele>1314.259521</ele>
        <time>2010-11-27T16:52:22Z</time>
      </trkpt>
      <trkpt lat="45.91917" lon="6.4336">
        <ele>1313.778809</ele>
        <time>2010-11-27T16:52:28Z</time>
      </trkpt>
      <trkpt lat="45.91915" lon="6.43344">
        <ele>1312.817627</ele>
        <time>2010-11-27T16:52:37Z</time>
      </trkpt>
      <trkpt lat="45.91911" lon="6.43328">
        <ele>1311.375732</ele>
        <time>2010-11-27T16:52:47Z</time>
      </trkpt>
      <trkpt lat="45.91909" lon="6.43323">
        <ele>1310.89502</ele>
        <time>2010-11-27T16:52:50Z</time>
      </trkpt>
      <trkpt lat="45.91903" lon="6.43314">
        <ele>1309.933594</ele>
        <time>2010-11-27T16:52:57Z</time>
      </trkpt>
      <trkpt lat="45.91894" lon="6.43311">
        <ele>1307.049561</ele>
        <time>2010-11-27T16:53:06Z</time>
      </trkpt>
      <trkpt lat="45.9189" lon="6.43315">
        <ele>1306.568848</ele>
        <time>2010-11-27T16:53:11Z</time>
      </trkpt>
      <trkpt lat="45.91882" lon="6.43322">
        <ele>1305.607666</ele>
        <time>2010-11-27T16:53:19Z</time>
      </trkpt>
      <trkpt lat="45.91874" lon="6.43332">
        <ele>1304.64624</ele>
        <time>2010-11-27T16:53:27Z</time>
      </trkpt>
      <trkpt lat="45.91865" lon="6.4334">
        <ele>1301.281738</ele>
        <time>2010-11-27T16:53:36Z</time>
      </trkpt>
      <trkpt lat="45.9186" lon="6.43345">
        <ele>1300.801025</ele>
        <time>2010-11-27T16:53:41Z</time>
      </trkpt>
      <trkpt lat="45.9185" lon="6.43353">
        <ele>1299.839844</ele>
        <time>2010-11-27T16:53:50Z</time>
      </trkpt>
      <trkpt lat="45.91838" lon="6.43359">
        <ele>1297.917236</ele>
        <time>2010-11-27T16:53:59Z</time>
      </trkpt>
      <trkpt lat="45.91831" lon="6.43367">
        <ele>1297.917236</ele>
        <time>2010-11-27T16:54:08Z</time>
      </trkpt>
      <trkpt lat="45.91823" lon="6.43375">
        <ele>1297.436523</ele>
        <time>2010-11-27T16:54:16Z</time>
      </trkpt>
      <trkpt lat="45.91817" lon="6.43387">
        <ele>1296.955811</ele>
        <time>2010-11-27T16:54:24Z</time>
      </trkpt>
      <trkpt lat="45.9181" lon="6.434">
        <ele>1295.033203</ele>
        <time>2010-11-27T16:54:34Z</time>
      </trkpt>
      <trkpt lat="45.91807" lon="6.43407">
        <ele>1294.55249</ele>
        <time>2010-11-27T16:54:38Z</time>
      </trkpt>
      <trkpt lat="45.91798" lon="6.43424">
        <ele>1293.110596</ele>
        <time>2010-11-27T16:54:49Z</time>
      </trkpt>
      <trkpt lat="45.91791" lon="6.43438">
        <ele>1292.149414</ele>
        <time>2010-11-27T16:54:59Z</time>
      </trkpt>
      <trkpt lat="45.91789" lon="6.43442">
        <ele>1291.668457</ele>
        <time>2010-11-27T16:55:07Z</time>
      </trkpt>
      <trkpt lat="45.91784" lon="6.43447">
        <ele>1292.149414</ele>
        <time>2010-11-27T16:55:16Z</time>
      </trkpt>
      <trkpt lat="45.91778" lon="6.43457">
        <ele>1292.630127</ele>
        <time>2010-11-27T16:55:27Z</time>
      </trkpt>
      <trkpt lat="45.91776" lon="6.43464">
        <ele>1293.591309</ele>
        <time>2010-11-27T16:55:37Z</time>
      </trkpt>
      <trkpt lat="45.91774" lon="6.43471">
        <ele>1294.55249</ele>
        <time>2010-11-27T16:55:46Z</time>
      </trkpt>
      <trkpt lat="45.91771" lon="6.43479">
        <ele>1295.513916</ele>
        <time>2010-11-27T16:55:56Z</time>
      </trkpt>
      <trkpt lat="45.91768" lon="6.43486">
        <ele>1295.513916</ele>
        <time>2010-11-27T16:56:04Z</time>
      </trkpt>
      <trkpt lat="45.91761" lon="6.43486">
        <ele>1295.994629</ele>
        <time>2010-11-27T16:56:14Z</time>
      </trkpt>
      <trkpt lat="45.91757" lon="6.43475">
        <ele>1296.475342</ele>
        <time>2010-11-27T16:56:25Z</time>
      </trkpt>
      <trkpt lat="45.91753" lon="6.43465">
        <ele>1296.475342</ele>
        <time>2010-11-27T16:56:35Z</time>
      </trkpt>
      <trkpt lat="45.9175" lon="6.43452">
        <ele>1296.955811</ele>
        <time>2010-11-27T16:56:45Z</time>
      </trkpt>
      <trkpt lat="45.91745" lon="6.43442">
        <ele>1297.436523</ele>
        <time>2010-11-27T16:56:56Z</time>
      </trkpt>
      <trkpt lat="45.91741" lon="6.43434">
        <ele>1298.397705</ele>
        <time>2010-11-27T16:57:06Z</time>
      </trkpt>
      <trkpt lat="45.91737" lon="6.43423">
        <ele>1299.359131</ele>
        <time>2010-11-27T16:57:15Z</time>
      </trkpt>
      <trkpt lat="45.91734" lon="6.43413">
        <ele>1298.878418</ele>
        <time>2010-11-27T16:57:24Z</time>
      </trkpt>
      <trkpt lat="45.91729" lon="6.43403">
        <ele>1298.397705</ele>
        <time>2010-11-27T16:57:34Z</time>
      </trkpt>
      <trkpt lat="45.91726" lon="6.43389">
        <ele>1296.955811</ele>
        <time>2010-11-27T16:57:44Z</time>
      </trkpt>
      <trkpt lat="45.91722" lon="6.43377">
        <ele>1296.475342</ele>
        <time>2010-11-27T16:57:54Z</time>
      </trkpt>
      <trkpt lat="45.91718" lon="6.43365">
        <ele>1295.513916</ele>
        <time>2010-11-27T16:58:04Z</time>
      </trkpt>
      <trkpt lat="45.91718" lon="6.43362">
        <ele>1295.994629</ele>
        <time>2010-11-27T16:58:06Z</time>
      </trkpt>
      <trkpt lat="45.91714" lon="6.4335">
        <ele>1294.072021</ele>
        <time>2010-11-27T16:58:15Z</time>
      </trkpt>
      <trkpt lat="45.91712" lon="6.43343">
        <ele>1294.072021</ele>
        <time>2010-11-27T16:58:20Z</time>
      </trkpt>
      <trkpt lat="45.91708" lon="6.43329">
        <ele>1292.630127</ele>
        <time>2010-11-27T16:58:31Z</time>
      </trkpt>
      <trkpt lat="45.91706" lon="6.43316">
        <ele>1290.707031</ele>
        <time>2010-11-27T16:58:41Z</time>
      </trkpt>
      <trkpt lat="45.91705" lon="6.43306">
        <ele>1289.74585</ele>
        <time>2010-11-27T16:58:49Z</time>
      </trkpt>
      <trkpt lat="45.91705" lon="6.43289">
        <ele>1288.303955</ele>
        <time>2010-11-27T16:59:01Z</time>
      </trkpt>
      <trkpt lat="45.91701" lon="6.43276">
        <ele>1287.342529</ele>
        <time>2010-11-27T16:59:10Z</time>
      </trkpt>
      <trkpt lat="45.91696" lon="6.43266">
        <ele>1285.900635</ele>
        <time>2010-11-27T16:59:20Z</time>
      </trkpt>
      <trkpt lat="45.91689" lon="6.43252">
        <ele>1284.45874</ele>
        <time>2010-11-27T16:59:33Z</time>
      </trkpt>
      <trkpt lat="45.91685" lon="6.4324">
        <ele>1282.536133</ele>
        <time>2010-11-27T16:59:44Z</time>
      </trkpt>
      <trkpt lat="45.91683" lon="6.43223">
        <ele>1281.574707</ele>
        <time>2010-11-27T16:59:57Z</time>
      </trkpt>
      <trkpt lat="45.91682" lon="6.43217">
        <ele>1281.574707</ele>
        <time>2010-11-27T17:00:01Z</time>
      </trkpt>
      <trkpt lat="45.91682" lon="6.43203">
        <ele>1281.094238</ele>
        <time>2010-11-27T17:00:12Z</time>
      </trkpt>
      <trkpt lat="45.91679" lon="6.43188">
        <ele>1280.613525</ele>
        <time>2010-11-27T17:00:23Z</time>
      </trkpt>
      <trkpt lat="45.91673" lon="6.43175">
        <ele>1278.210205</ele>
        <time>2010-11-27T17:00:35Z</time>
      </trkpt>
      <trkpt lat="45.91668" lon="6.43169">
        <ele>1278.690918</ele>
        <time>2010-11-27T17:00:42Z</time>
      </trkpt>
      <trkpt lat="45.9166" lon="6.43158">
        <ele>1276.768311</ele>
        <time>2010-11-27T17:00:54Z</time>
      </trkpt>
      <trkpt lat="45.91653" lon="6.43149">
        <ele>1276.287598</ele>
        <time>2010-11-27T17:01:04Z</time>
      </trkpt>
      <trkpt lat="45.91648" lon="6.4314">
        <ele>1275.325928</ele>
        <time>2010-11-27T17:01:14Z</time>
      </trkpt>
      <trkpt lat="45.91643" lon="6.43127">
        <ele>1273.403564</ele>
        <time>2010-11-27T17:01:26Z</time>
      </trkpt>
      <trkpt lat="45.91638" lon="6.43115">
        <ele>1272.442139</ele>
        <time>2010-11-27T17:01:37Z</time>
      </trkpt>
      <trkpt lat="45.91636" lon="6.43109">
        <ele>1272.442139</ele>
        <time>2010-11-27T17:01:42Z</time>
      </trkpt>
      <trkpt lat="45.91634" lon="6.43093">
        <ele>1271.480713</ele>
        <time>2010-11-27T17:01:52Z</time>
      </trkpt>
      <trkpt lat="45.91618" lon="6.43079">
        <ele>1270.519531</ele>
        <time>2010-11-27T17:04:29Z</time>
      </trkpt>
      <trkpt lat="45.91619" lon="6.43072">
        <ele>1269.55835</ele>
        <time>2010-11-27T17:04:36Z</time>
      </trkpt>
      <trkpt lat="45.91622" lon="6.4306">
        <ele>1268.596924</ele>
        <time>2010-11-27T17:04:45Z</time>
      </trkpt>
      <trkpt lat="45.91624" lon="6.43046">
        <ele>1268.116211</ele>
        <time>2010-11-27T17:04:57Z</time>
      </trkpt>
      <trkpt lat="45.91626" lon="6.43031">
        <ele>1266.193604</ele>
        <time>2010-11-27T17:05:09Z</time>
      </trkpt>
      <trkpt lat="45.9163" lon="6.43018">
        <ele>1264.751709</ele>
        <time>2010-11-27T17:05:20Z</time>
      </trkpt>
      <trkpt lat="45.91632" lon="6.43008">
        <ele>1264.270996</ele>
        <time>2010-11-27T17:05:30Z</time>
      </trkpt>
      <trkpt lat="45.91633" lon="6.42995">
        <ele>1262.829102</ele>
        <time>2010-11-27T17:05:42Z</time>
      </trkpt>
      <trkpt lat="45.91632" lon="6.42984">
        <ele>1261.86792</ele>
        <time>2010-11-27T17:05:52Z</time>
      </trkpt>
      <trkpt lat="45.91632" lon="6.42976">
        <ele>1259.944824</ele>
        <time>2010-11-27T17:06:00Z</time>
      </trkpt>
      <trkpt lat="45.91632" lon="6.42969">
        <ele>1258.50293</ele>
        <time>2010-11-27T17:06:07Z</time>
      </trkpt>
      <trkpt lat="45.91632" lon="6.42962">
        <ele>1257.541748</ele>
        <time>2010-11-27T17:06:15Z</time>
      </trkpt>
      <trkpt lat="45.91634" lon="6.42968">
        <ele>1256.099609</ele>
        <time>2010-11-27T17:06:23Z</time>
      </trkpt>
      <trkpt lat="45.91635" lon="6.42975">
        <ele>1255.138428</ele>
        <time>2010-11-27T17:06:31Z</time>
      </trkpt>
      <trkpt lat="45.91637" lon="6.42981">
        <ele>1254.177246</ele>
        <time>2010-11-27T17:06:39Z</time>
      </trkpt>
      <trkpt lat="45.91637" lon="6.42982">
        <ele>1254.657715</ele>
        <time>2010-11-27T17:06:40Z</time>
      </trkpt>
      <trkpt lat="45.9164" lon="6.42987">
        <ele>1254.177246</ele>
        <time>2010-11-27T17:06:46Z</time>
      </trkpt>
      <trkpt lat="45.91642" lon="6.42995">
        <ele>1253.696533</ele>
        <time>2010-11-27T17:06:55Z</time>
      </trkpt>
      <trkpt lat="45.91643" lon="6.43001">
        <ele>1252.735107</ele>
        <time>2010-11-27T17:07:02Z</time>
      </trkpt>
      <trkpt lat="45.91644" lon="6.43006">
        <ele>1251.773926</ele>
        <time>2010-11-27T17:07:09Z</time>
      </trkpt>
      <trkpt lat="45.91645" lon="6.42999">
        <ele>1250.8125</ele>
        <time>2010-11-27T17:07:23Z</time>
      </trkpt>
      <trkpt lat="45.91646" lon="6.42995">
        <ele>1248.889893</ele>
        <time>2010-11-27T17:07:51Z</time>
      </trkpt>
      <trkpt lat="45.91645" lon="6.42984">
        <ele>1246.967285</ele>
        <time>2010-11-27T17:08:01Z</time>
      </trkpt>
      <trkpt lat="45.91646" lon="6.42975">
        <ele>1245.525391</ele>
        <time>2010-11-27T17:08:11Z</time>
      </trkpt>
      <trkpt lat="45.91646" lon="6.42962">
        <ele>1242.641357</ele>
        <time>2010-11-27T17:08:23Z</time>
      </trkpt>
      <trkpt lat="45.91645" lon="6.42956">
        <ele>1242.641357</ele>
        <time>2010-11-27T17:08:30Z</time>
      </trkpt>
      <trkpt lat="45.91644" lon="6.42947">
        <ele>1242.160645</ele>
        <time>2010-11-27T17:08:39Z</time>
      </trkpt>
      <trkpt lat="45.91643" lon="6.42939">
        <ele>1241.199219</ele>
        <time>2010-11-27T17:08:45Z</time>
      </trkpt>
      <trkpt lat="45.91645" lon="6.4293">
        <ele>1238.796143</ele>
        <time>2010-11-27T17:08:56Z</time>
      </trkpt>
      <trkpt lat="45.91649" lon="6.42927">
        <ele>1237.834717</ele>
        <time>2010-11-27T17:09:02Z</time>
      </trkpt>
      <trkpt lat="45.91653" lon="6.42929">
        <ele>1234.950928</ele>
        <time>2010-11-27T17:09:15Z</time>
      </trkpt>
      <trkpt lat="45.91652" lon="6.42932">
        <ele>1234.470215</ele>
        <time>2010-11-27T17:09:23Z</time>
      </trkpt>
      <trkpt lat="45.91651" lon="6.42936">
        <ele>1233.508789</ele>
        <time>2010-11-27T17:09:31Z</time>
      </trkpt>
      <trkpt lat="45.91652" lon="6.42934">
        <ele>1233.028076</ele>
        <time>2010-11-27T17:09:41Z</time>
      </trkpt>
      <trkpt lat="45.91651" lon="6.42928">
        <ele>1231.105713</ele>
        <time>2010-11-27T17:09:47Z</time>
      </trkpt>
      <trkpt lat="45.91648" lon="6.42921">
        <ele>1229.663574</ele>
        <time>2010-11-27T17:09:55Z</time>
      </trkpt>
      <trkpt lat="45.91646" lon="6.42908">
        <ele>1227.260254</ele>
        <time>2010-11-27T17:10:05Z</time>
      </trkpt>
      <trkpt lat="45.9165" lon="6.42901">
        <ele>1224.856934</ele>
        <time>2010-11-27T17:10:15Z</time>
      </trkpt>
      <trkpt lat="45.91649" lon="6.42901">
        <ele>1222.934326</ele>
        <time>2010-11-27T17:10:25Z</time>
      </trkpt>
      <trkpt lat="45.91645" lon="6.42894">
        <ele>1217.646973</ele>
        <time>2010-11-27T17:11:04Z</time>
      </trkpt>
      <trkpt lat="45.91651" lon="6.42894">
        <ele>1218.127686</ele>
        <time>2010-11-27T17:11:12Z</time>
      </trkpt>
      <trkpt lat="45.91656" lon="6.42892">
        <ele>1216.205078</ele>
        <time>2010-11-27T17:11:25Z</time>
      </trkpt>
      <trkpt lat="45.91659" lon="6.42891">
        <ele>1215.243896</ele>
        <time>2010-11-27T17:11:34Z</time>
      </trkpt>
      <trkpt lat="45.91657" lon="6.42887">
        <ele>1213.801758</ele>
        <time>2010-11-27T17:11:41Z</time>
      </trkpt>
      <trkpt lat="45.91653" lon="6.42882">
        <ele>1212.359863</ele>
        <time>2010-11-27T17:11:47Z</time>
      </trkpt>
      <trkpt lat="45.91648" lon="6.42879">
        <ele>1211.398438</ele>
        <time>2010-11-27T17:11:53Z</time>
      </trkpt>
      <trkpt lat="45.91647" lon="6.42875">
        <ele>1210.917725</ele>
        <time>2010-11-27T17:12:00Z</time>
      </trkpt>
      <trkpt lat="45.91646" lon="6.42866">
        <ele>1208.995117</ele>
        <time>2010-11-27T17:12:11Z</time>
      </trkpt>
      <trkpt lat="45.91649" lon="6.42852">
        <ele>1207.553223</ele>
        <time>2010-11-27T17:12:28Z</time>
      </trkpt>
      <trkpt lat="45.91649" lon="6.42845">
        <ele>1207.553223</ele>
        <time>2010-11-27T17:12:58Z</time>
      </trkpt>
      <trkpt lat="45.9165" lon="6.42841">
        <ele>1206.591797</ele>
        <time>2010-11-27T17:13:05Z</time>
      </trkpt>
      <trkpt lat="45.91651" lon="6.42834">
        <ele>1205.149902</ele>
        <time>2010-11-27T17:13:12Z</time>
      </trkpt>
      <trkpt lat="45.91649" lon="6.42824">
        <ele>1204.188721</ele>
        <time>2010-11-27T17:13:21Z</time>
      </trkpt>
      <trkpt lat="45.91646" lon="6.42816">
        <ele>1203.708008</ele>
        <time>2010-11-27T17:13:30Z</time>
      </trkpt>
      <trkpt lat="45.91642" lon="6.42808">
        <ele>1202.746582</ele>
        <time>2010-11-27T17:13:39Z</time>
      </trkpt>
      <trkpt lat="45.91641" lon="6.42806">
        <ele>1202.746582</ele>
        <time>2010-11-27T17:13:49Z</time>
      </trkpt>
      <trkpt lat="45.91639" lon="6.42802">
        <ele>1201.7854</ele>
        <time>2010-11-27T17:13:54Z</time>
      </trkpt>
      <trkpt lat="45.91637" lon="6.42792">
        <ele>1201.304688</ele>
        <time>2010-11-27T17:14:03Z</time>
      </trkpt>
      <trkpt lat="45.91633" lon="6.42782">
        <ele>1201.7854</ele>
        <time>2010-11-27T17:14:11Z</time>
      </trkpt>
      <trkpt lat="45.91632" lon="6.42771">
        <ele>1201.7854</ele>
        <time>2010-11-27T17:14:20Z</time>
      </trkpt>
      <trkpt lat="45.9163" lon="6.42761">
        <ele>1201.7854</ele>
        <time>2010-11-27T17:14:30Z</time>
      </trkpt>
      <trkpt lat="45.91629" lon="6.42756">
        <ele>1200.343506</ele>
        <time>2010-11-27T17:14:39Z</time>
      </trkpt>
      <trkpt lat="45.91626" lon="6.42749">
        <ele>1198.901367</ele>
        <time>2010-11-27T17:14:48Z</time>
      </trkpt>
      <trkpt lat="45.91622" lon="6.42745">
        <ele>1198.901367</ele>
        <time>2010-11-27T17:14:55Z</time>
      </trkpt>
      <trkpt lat="45.91617" lon="6.42737">
        <ele>1198.901367</ele>
        <time>2010-11-27T17:15:04Z</time>
      </trkpt>
      <trkpt lat="45.91614" lon="6.4273">
        <ele>1198.901367</ele>
        <time>2010-11-27T17:15:12Z</time>
      </trkpt>
      <trkpt lat="45.9161" lon="6.42724">
        <ele>1198.420654</ele>
        <time>2010-11-27T17:15:20Z</time>
      </trkpt>
      <trkpt lat="45.91607" lon="6.4272">
        <ele>1197.459473</ele>
        <time>2010-11-27T17:15:27Z</time>
      </trkpt>
      <trkpt lat="45.91603" lon="6.42712">
        <ele>1195.536621</ele>
        <time>2010-11-27T17:15:37Z</time>
      </trkpt>
      <trkpt lat="45.91598" lon="6.42706">
        <ele>1194.575195</ele>
        <time>2010-11-27T17:15:46Z</time>
      </trkpt>
      <trkpt lat="45.91595" lon="6.42702">
        <ele>1192.652832</ele>
        <time>2010-11-27T17:15:53Z</time>
      </trkpt>
      <trkpt lat="45.91588" lon="6.42694">
        <ele>1191.210693</ele>
        <time>2010-11-27T17:16:03Z</time>
      </trkpt>
      <trkpt lat="45.91583" lon="6.42688">
        <ele>1189.768799</ele>
        <time>2010-11-27T17:16:12Z</time>
      </trkpt>
      <trkpt lat="45.91577" lon="6.42684">
        <ele>1189.288086</ele>
        <time>2010-11-27T17:16:21Z</time>
      </trkpt>
      <trkpt lat="45.91571" lon="6.4268">
        <ele>1186.884766</ele>
        <time>2010-11-27T17:16:31Z</time>
      </trkpt>
      <trkpt lat="45.91564" lon="6.42676">
        <ele>1184.481689</ele>
        <time>2010-11-27T17:16:41Z</time>
      </trkpt>
      <trkpt lat="45.91558" lon="6.42671">
        <ele>1183.520264</ele>
        <time>2010-11-27T17:16:51Z</time>
      </trkpt>
      <trkpt lat="45.91551" lon="6.42667">
        <ele>1182.559082</ele>
        <time>2010-11-27T17:17:01Z</time>
      </trkpt>
      <trkpt lat="45.91549" lon="6.42666">
        <ele>1182.078369</ele>
        <time>2010-11-27T17:17:03Z</time>
      </trkpt>
      <trkpt lat="45.91542" lon="6.42661">
        <ele>1180.155762</ele>
        <time>2010-11-27T17:17:13Z</time>
      </trkpt>
      <trkpt lat="45.91536" lon="6.42655">
        <ele>1179.674805</ele>
        <time>2010-11-27T17:17:23Z</time>
      </trkpt>
      <trkpt lat="45.91533" lon="6.4265">
        <ele>1177.752197</ele>
        <time>2010-11-27T17:17:32Z</time>
      </trkpt>
      <trkpt lat="45.91529" lon="6.42644">
        <ele>1176.310303</ele>
        <time>2010-11-27T17:17:40Z</time>
      </trkpt>
      <trkpt lat="45.91532" lon="6.42639">
        <ele>1175.348877</ele>
        <time>2010-11-27T17:17:48Z</time>
      </trkpt>
      <trkpt lat="45.91536" lon="6.42635">
        <ele>1173.906982</ele>
        <time>2010-11-27T17:17:56Z</time>
      </trkpt>
      <trkpt lat="45.91544" lon="6.42635">
        <ele>1172.945801</ele>
        <time>2010-11-27T17:18:06Z</time>
      </trkpt>
      <trkpt lat="45.91552" lon="6.42633">
        <ele>1171.984375</ele>
        <time>2010-11-27T17:18:16Z</time>
      </trkpt>
      <trkpt lat="45.91559" lon="6.42629">
        <ele>1170.061768</ele>
        <time>2010-11-27T17:18:26Z</time>
      </trkpt>
      <trkpt lat="45.91566" lon="6.42624">
        <ele>1169.100586</ele>
        <time>2010-11-27T17:18:35Z</time>
      </trkpt>
      <trkpt lat="45.91575" lon="6.42618">
        <ele>1166.697266</ele>
        <time>2010-11-27T17:18:46Z</time>
      </trkpt>
      <trkpt lat="45.91586" lon="6.42613">
        <ele>1165.255371</ele>
        <time>2010-11-27T17:18:59Z</time>
      </trkpt>
      <trkpt lat="45.9159" lon="6.42611">
        <ele>1164.774658</ele>
        <time>2010-11-27T17:19:05Z</time>
      </trkpt>
      <trkpt lat="45.91598" lon="6.42608">
        <ele>1163.33252</ele>
        <time>2010-11-27T17:19:14Z</time>
      </trkpt>
      <trkpt lat="45.91605" lon="6.42608">
        <ele>1161.409912</ele>
        <time>2010-11-27T17:19:21Z</time>
      </trkpt>
      <trkpt lat="45.9161" lon="6.42608">
        <ele>1160.448486</ele>
        <time>2010-11-27T17:19:27Z</time>
      </trkpt>
      <trkpt lat="45.91616" lon="6.42607">
        <ele>1158.525879</ele>
        <time>2010-11-27T17:19:34Z</time>
      </trkpt>
      <trkpt lat="45.91624" lon="6.42607">
        <ele>1157.083984</ele>
        <time>2010-11-27T17:19:43Z</time>
      </trkpt>
      <trkpt lat="45.91632" lon="6.4261">
        <ele>1156.603271</ele>
        <time>2010-11-27T17:19:52Z</time>
      </trkpt>
      <trkpt lat="45.91639" lon="6.42617">
        <ele>1156.122559</ele>
        <time>2010-11-27T17:20:02Z</time>
      </trkpt>
      <trkpt lat="45.91644" lon="6.42615">
        <ele>1154.680664</ele>
        <time>2010-11-27T17:20:10Z</time>
      </trkpt>
      <trkpt lat="45.91639" lon="6.4261">
        <ele>1155.161377</ele>
        <time>2010-11-27T17:20:18Z</time>
      </trkpt>
      <trkpt lat="45.91636" lon="6.42605">
        <ele>1155.64209</ele>
        <time>2010-11-27T17:20:26Z</time>
      </trkpt>
      <trkpt lat="45.91628" lon="6.426">
        <ele>1156.122559</ele>
        <time>2010-11-27T17:20:36Z</time>
      </trkpt>
      <trkpt lat="45.91619" lon="6.42596">
        <ele>1155.64209</ele>
        <time>2010-11-27T17:20:45Z</time>
      </trkpt>
      <trkpt lat="45.91608" lon="6.42593">
        <ele>1155.64209</ele>
        <time>2010-11-27T17:20:56Z</time>
      </trkpt>
      <trkpt lat="45.91595" lon="6.42591">
        <ele>1156.122559</ele>
        <time>2010-11-27T17:21:08Z</time>
      </trkpt>
      <trkpt lat="45.91584" lon="6.42586">
        <ele>1156.122559</ele>
        <time>2010-11-27T17:21:18Z</time>
      </trkpt>
      <trkpt lat="45.91572" lon="6.42576">
        <ele>1155.161377</ele>
        <time>2010-11-27T17:21:31Z</time>
      </trkpt>
      <trkpt lat="45.91564" lon="6.4257">
        <ele>1154.200195</ele>
        <time>2010-11-27T17:21:39Z</time>
      </trkpt>
      <trkpt lat="45.91557" lon="6.42559">
        <ele>1153.719482</ele>
        <time>2010-11-27T17:21:50Z</time>
      </trkpt>
      <trkpt lat="45.91547" lon="6.42548">
        <ele>1153.719482</ele>
        <time>2010-11-27T17:22:02Z</time>
      </trkpt>
      <trkpt lat="45.91541" lon="6.42539">
        <ele>1153.23877</ele>
        <time>2010-11-27T17:22:12Z</time>
      </trkpt>
      <trkpt lat="45.91532" lon="6.4253">
        <ele>1150.35498</ele>
        <time>2010-11-27T17:22:24Z</time>
      </trkpt>
      <trkpt lat="45.91525" lon="6.42525">
        <ele>1148.432129</ele>
        <time>2010-11-27T17:22:32Z</time>
      </trkpt>
      <trkpt lat="45.91513" lon="6.42522">
        <ele>1146.028809</ele>
        <time>2010-11-27T17:22:43Z</time>
      </trkpt>
      <trkpt lat="45.91506" lon="6.4252">
        <ele>1144.106201</ele>
        <time>2010-11-27T17:22:50Z</time>
      </trkpt>
      <trkpt lat="45.915" lon="6.42516">
        <ele>1142.183594</ele>
        <time>2010-11-27T17:22:57Z</time>
      </trkpt>
      <trkpt lat="45.91491" lon="6.42511">
        <ele>1140.260986</ele>
        <time>2010-11-27T17:23:05Z</time>
      </trkpt>
      <trkpt lat="45.9148" lon="6.42501">
        <ele>1140.260986</ele>
        <time>2010-11-27T17:23:16Z</time>
      </trkpt>
      <trkpt lat="45.91471" lon="6.42494">
        <ele>1138.819092</ele>
        <time>2010-11-27T17:23:26Z</time>
      </trkpt>
      <trkpt lat="45.91459" lon="6.42488">
        <ele>1136.89624</ele>
        <time>2010-11-27T17:23:38Z</time>
      </trkpt>
      <trkpt lat="45.91448" lon="6.42481">
        <ele>1134.012451</ele>
        <time>2010-11-27T17:23:49Z</time>
      </trkpt>
      <trkpt lat="45.91443" lon="6.42478">
        <ele>1132.089844</ele>
        <time>2010-11-27T17:23:54Z</time>
      </trkpt>
      <trkpt lat="45.91435" lon="6.42472">
        <ele>1129.686279</ele>
        <time>2010-11-27T17:24:04Z</time>
      </trkpt>
      <trkpt lat="45.91426" lon="6.42467">
        <ele>1127.763672</ele>
        <time>2010-11-27T17:24:12Z</time>
      </trkpt>
      <trkpt lat="45.91418" lon="6.42461">
        <ele>1126.321777</ele>
        <time>2010-11-27T17:24:21Z</time>
      </trkpt>
      <trkpt lat="45.91409" lon="6.42452">
        <ele>1124.879883</ele>
        <time>2010-11-27T17:24:31Z</time>
      </trkpt>
      <trkpt lat="45.91406" lon="6.42446">
        <ele>1124.39917</ele>
        <time>2010-11-27T17:24:36Z</time>
      </trkpt>
      <trkpt lat="45.91401" lon="6.42431">
        <ele>1123.918457</ele>
        <time>2010-11-27T17:24:47Z</time>
      </trkpt>
      <trkpt lat="45.91397" lon="6.42424">
        <ele>1124.39917</ele>
        <time>2010-11-27T17:24:53Z</time>
      </trkpt>
      <trkpt lat="45.91392" lon="6.42416">
        <ele>1123.918457</ele>
        <time>2010-11-27T17:25:00Z</time>
      </trkpt>
      <trkpt lat="45.91387" lon="6.42409">
        <ele>1122.957275</ele>
        <time>2010-11-27T17:25:08Z</time>
      </trkpt>
      <trkpt lat="45.91381" lon="6.42402">
        <ele>1121.515137</ele>
        <time>2010-11-27T17:25:16Z</time>
      </trkpt>
      <trkpt lat="45.91374" lon="6.42396">
        <ele>1118.150635</ele>
        <time>2010-11-27T17:25:24Z</time>
      </trkpt>
      <trkpt lat="45.9137" lon="6.42389">
        <ele>1117.189453</ele>
        <time>2010-11-27T17:25:32Z</time>
      </trkpt>
      <trkpt lat="45.91362" lon="6.42381">
        <ele>1115.266602</ele>
        <time>2010-11-27T17:25:40Z</time>
      </trkpt>
      <trkpt lat="45.91351" lon="6.42373">
        <ele>1113.824463</ele>
        <time>2010-11-27T17:25:50Z</time>
      </trkpt>
      <trkpt lat="45.91346" lon="6.42364">
        <ele>1112.863281</ele>
        <time>2010-11-27T17:25:58Z</time>
      </trkpt>
      <trkpt lat="45.9135" lon="6.42359">
        <ele>1111.9021</ele>
        <time>2010-11-27T17:26:39Z</time>
      </trkpt>
      <trkpt lat="45.91359" lon="6.4235">
        <ele>1109.979248</ele>
        <time>2010-11-27T17:26:49Z</time>
      </trkpt>
      <trkpt lat="45.91369" lon="6.42338">
        <ele>1108.056885</ele>
        <time>2010-11-27T17:27:00Z</time>
      </trkpt>
      <trkpt lat="45.91375" lon="6.42334">
        <ele>1107.576172</ele>
        <time>2010-11-27T17:27:07Z</time>
      </trkpt>
      <trkpt lat="45.91377" lon="6.42332">
        <ele>1106.614746</ele>
        <time>2010-11-27T17:27:09Z</time>
      </trkpt>
      <trkpt lat="45.91387" lon="6.42325">
        <ele>1104.692139</ele>
        <time>2010-11-27T17:27:18Z</time>
      </trkpt>
      <trkpt lat="45.914" lon="6.4232">
        <ele>1102.288818</ele>
        <time>2010-11-27T17:27:28Z</time>
      </trkpt>
      <trkpt lat="45.91407" lon="6.4232">
        <ele>1101.327637</ele>
        <time>2010-11-27T17:27:35Z</time>
      </trkpt>
      <trkpt lat="45.91417" lon="6.4232">
        <ele>1099.404785</ele>
        <time>2010-11-27T17:27:44Z</time>
      </trkpt>
      <trkpt lat="45.91427" lon="6.42314">
        <ele>1097.962891</ele>
        <time>2010-11-27T17:27:53Z</time>
      </trkpt>
      <trkpt lat="45.91434" lon="6.42309">
        <ele>1097.482178</ele>
        <time>2010-11-27T17:28:02Z</time>
      </trkpt>
      <trkpt lat="45.91434" lon="6.42308">
        <ele>1097.001465</ele>
        <time>2010-11-27T17:28:03Z</time>
      </trkpt>
      <trkpt lat="45.91437" lon="6.42304">
        <ele>1096.040283</ele>
        <time>2010-11-27T17:28:07Z</time>
      </trkpt>
      <trkpt lat="45.91444" lon="6.42298">
        <ele>1094.117676</ele>
        <time>2010-11-27T17:28:14Z</time>
      </trkpt>
      <trkpt lat="45.91454" lon="6.42293">
        <ele>1092.675781</ele>
        <time>2010-11-27T17:28:24Z</time>
      </trkpt>
      <trkpt lat="45.91464" lon="6.4229">
        <ele>1091.233643</ele>
        <time>2010-11-27T17:28:33Z</time>
      </trkpt>
      <trkpt lat="45.91472" lon="6.42286">
        <ele>1089.791748</ele>
        <time>2010-11-27T17:28:40Z</time>
      </trkpt>
      <trkpt lat="45.91479" lon="6.42278">
        <ele>1088.830566</ele>
        <time>2010-11-27T17:28:49Z</time>
      </trkpt>
      <trkpt lat="45.91485" lon="6.42269">
        <ele>1087.388428</ele>
        <time>2010-11-27T17:28:59Z</time>
      </trkpt>
      <trkpt lat="45.91489" lon="6.42261">
        <ele>1084.985352</ele>
        <time>2010-11-27T17:29:10Z</time>
      </trkpt>
      <trkpt lat="45.9149" lon="6.42259">
        <ele>1084.023926</ele>
        <time>2010-11-27T17:29:13Z</time>
      </trkpt>
      <trkpt lat="45.91489" lon="6.42253">
        <ele>1083.062256</ele>
        <time>2010-11-27T17:29:21Z</time>
      </trkpt>
      <trkpt lat="45.91485" lon="6.42247">
        <ele>1081.139893</ele>
        <time>2010-11-27T17:29:30Z</time>
      </trkpt>
      <trkpt lat="45.91478" lon="6.42244">
        <ele>1079.217041</ele>
        <time>2010-11-27T17:29:39Z</time>
      </trkpt>
      <trkpt lat="45.91469" lon="6.42241">
        <ele>1077.294678</ele>
        <time>2010-11-27T17:29:49Z</time>
      </trkpt>
      <trkpt lat="45.91465" lon="6.4224">
        <ele>1076.813965</ele>
        <time>2010-11-27T17:29:55Z</time>
      </trkpt>
      <trkpt lat="45.91459" lon="6.42238">
        <ele>1076.333252</ele>
        <time>2010-11-27T17:30:02Z</time>
      </trkpt>
      <trkpt lat="45.91454" lon="6.42235">
        <ele>1074.891357</ele>
        <time>2010-11-27T17:30:10Z</time>
      </trkpt>
      <trkpt lat="45.91448" lon="6.42227">
        <ele>1073.929932</ele>
        <time>2010-11-27T17:30:17Z</time>
      </trkpt>
      <trkpt lat="45.91445" lon="6.42214">
        <ele>1071.526611</ele>
        <time>2010-11-27T17:30:26Z</time>
      </trkpt>
      <trkpt lat="45.91446" lon="6.42206">
        <ele>1069.123535</ele>
        <time>2010-11-27T17:30:33Z</time>
      </trkpt>
      <trkpt lat="45.91445" lon="6.42194">
        <ele>1069.123535</ele>
        <time>2010-11-27T17:30:43Z</time>
      </trkpt>
      <trkpt lat="45.91443" lon="6.4219">
        <ele>1068.642822</ele>
        <time>2010-11-27T17:30:50Z</time>
      </trkpt>
      <trkpt lat="45.91437" lon="6.42188">
        <ele>1068.642822</ele>
        <time>2010-11-27T17:31:07Z</time>
      </trkpt>
      <trkpt lat="45.91436" lon="6.42186">
        <ele>1068.162109</ele>
        <time>2010-11-27T17:31:09Z</time>
      </trkpt>
      <trkpt lat="45.91431" lon="6.4218">
        <ele>1067.200684</ele>
        <time>2010-11-27T17:31:16Z</time>
      </trkpt>
      <trkpt lat="45.91422" lon="6.42168">
        <ele>1066.239258</ele>
        <time>2010-11-27T17:31:27Z</time>
      </trkpt>
      <trkpt lat="45.91414" lon="6.42155">
        <ele>1064.31665</ele>
        <time>2010-11-27T17:31:38Z</time>
      </trkpt>
      <trkpt lat="45.91406" lon="6.42142">
        <ele>1062.874756</ele>
        <time>2010-11-27T17:31:49Z</time>
      </trkpt>
      <trkpt lat="45.91397" lon="6.42127">
        <ele>1062.874756</ele>
        <time>2010-11-27T17:32:01Z</time>
      </trkpt>
      <trkpt lat="45.91386" lon="6.42114">
        <ele>1061.913574</ele>
        <time>2010-11-27T17:32:14Z</time>
      </trkpt>
      <trkpt lat="45.91376" lon="6.42109">
        <ele>1060.471436</ele>
        <time>2010-11-27T17:32:23Z</time>
      </trkpt>
      <trkpt lat="45.91369" lon="6.42103">
        <ele>1059.029541</ele>
        <time>2010-11-27T17:32:31Z</time>
      </trkpt>
      <trkpt lat="45.91354" lon="6.42096">
        <ele>1058.068359</ele>
        <time>2010-11-27T17:32:44Z</time>
      </trkpt>
      <trkpt lat="45.91341" lon="6.42097">
        <ele>1056.145508</ele>
        <time>2010-11-27T17:32:56Z</time>
      </trkpt>
      <trkpt lat="45.91329" lon="6.42097">
        <ele>1055.665039</ele>
        <time>2010-11-27T17:33:06Z</time>
      </trkpt>
      <trkpt lat="45.91317" lon="6.42096">
        <ele>1054.223145</ele>
        <time>2010-11-27T17:33:17Z</time>
      </trkpt>
      <trkpt lat="45.91302" lon="6.42092">
        <ele>1052.300293</ele>
        <time>2010-11-27T17:33:31Z</time>
      </trkpt>
      <trkpt lat="45.9129" lon="6.42089">
        <ele>1050.377686</ele>
        <time>2010-11-27T17:33:42Z</time>
      </trkpt>
      <trkpt lat="45.9128" lon="6.42087">
        <ele>1049.896973</ele>
        <time>2010-11-27T17:33:51Z</time>
      </trkpt>
      <trkpt lat="45.91267" lon="6.42084">
        <ele>1048.454834</ele>
        <time>2010-11-27T17:34:02Z</time>
      </trkpt>
      <trkpt lat="45.91255" lon="6.4208">
        <ele>1047.493652</ele>
        <time>2010-11-27T17:34:13Z</time>
      </trkpt>
      <trkpt lat="45.91243" lon="6.42075">
        <ele>1046.051758</ele>
        <time>2010-11-27T17:34:24Z</time>
      </trkpt>
      <trkpt lat="45.91235" lon="6.42073">
        <ele>1044.12915</ele>
        <time>2010-11-27T17:34:32Z</time>
      </trkpt>
      <trkpt lat="45.91224" lon="6.4207">
        <ele>1043.648438</ele>
        <time>2010-11-27T17:34:42Z</time>
      </trkpt>
      <trkpt lat="45.91213" lon="6.42065">
        <ele>1042.206543</ele>
        <time>2010-11-27T17:34:52Z</time>
      </trkpt>
      <trkpt lat="45.91202" lon="6.42058">
        <ele>1040.764404</ele>
        <time>2010-11-27T17:35:01Z</time>
      </trkpt>
      <trkpt lat="45.91189" lon="6.42049">
        <ele>1039.32251</ele>
        <time>2010-11-27T17:35:14Z</time>
      </trkpt>
      <trkpt lat="45.9118" lon="6.42044">
        <ele>1037.880615</ele>
        <time>2010-11-27T17:35:23Z</time>
      </trkpt>
      <trkpt lat="45.9117" lon="6.42039">
        <ele>1036.438721</ele>
        <time>2010-11-27T17:35:33Z</time>
      </trkpt>
      <trkpt lat="45.91169" lon="6.42039">
        <ele>1036.919189</ele>
        <time>2010-11-27T17:35:34Z</time>
      </trkpt>
      <trkpt lat="45.91157" lon="6.42033">
        <ele>1034.996582</ele>
        <time>2010-11-27T17:35:44Z</time>
      </trkpt>
      <trkpt lat="45.91145" lon="6.42026">
        <ele>1033.554443</ele>
        <time>2010-11-27T17:35:54Z</time>
      </trkpt>
      <trkpt lat="45.91133" lon="6.4202">
        <ele>1032.593262</ele>
        <time>2010-11-27T17:36:04Z</time>
      </trkpt>
      <trkpt lat="45.9112" lon="6.42013">
        <ele>1031.151367</ele>
        <time>2010-11-27T17:36:15Z</time>
      </trkpt>
      <trkpt lat="45.91106" lon="6.42003">
        <ele>1029.709229</ele>
        <time>2010-11-27T17:36:28Z</time>
      </trkpt>
      <trkpt lat="45.91092" lon="6.41993">
        <ele>1027.306152</ele>
        <time>2010-11-27T17:36:40Z</time>
      </trkpt>
      <trkpt lat="45.9108" lon="6.41987">
        <ele>1025.383301</ele>
        <time>2010-11-27T17:36:51Z</time>
      </trkpt>
      <trkpt lat="45.91066" lon="6.41981">
        <ele>1024.422119</ele>
        <time>2010-11-27T17:37:02Z</time>
      </trkpt>
      <trkpt lat="45.91053" lon="6.41972">
        <ele>1021.538086</ele>
        <time>2010-11-27T17:37:14Z</time>
      </trkpt>
      <trkpt lat="45.91051" lon="6.41969">
        <ele>1021.057617</ele>
        <time>2010-11-27T17:37:17Z</time>
      </trkpt>
      <trkpt lat="45.91044" lon="6.41965">
        <ele>1021.057617</ele>
        <time>2010-11-27T17:37:27Z</time>
      </trkpt>
      <trkpt lat="45.9104" lon="6.41963">
        <ele>1021.057617</ele>
        <time>2010-11-27T17:37:36Z</time>
      </trkpt>
      <trkpt lat="45.91024" lon="6.41955">
        <ele>1021.538086</ele>
        <time>2010-11-27T17:37:50Z</time>
      </trkpt>
      <trkpt lat="45.9101" lon="6.41948">
        <ele>1022.018799</ele>
        <time>2010-11-27T17:38:02Z</time>
      </trkpt>
      <trkpt lat="45.90998" lon="6.4194">
        <ele>1022.499512</ele>
        <time>2010-11-27T17:38:14Z</time>
      </trkpt>
      <trkpt lat="45.90986" lon="6.4193">
        <ele>1022.018799</ele>
        <time>2010-11-27T17:38:27Z</time>
      </trkpt>
      <trkpt lat="45.9097" lon="6.4192">
        <ele>1022.980225</ele>
        <time>2010-11-27T17:38:39Z</time>
      </trkpt>
      <trkpt lat="45.90956" lon="6.41912">
        <ele>1022.980225</ele>
        <time>2010-11-27T17:38:50Z</time>
      </trkpt>
      <trkpt lat="45.90941" lon="6.41907">
        <ele>1023.460938</ele>
        <time>2010-11-27T17:39:01Z</time>
      </trkpt>
      <trkpt lat="45.90925" lon="6.41905">
        <ele>1023.941406</ele>
        <time>2010-11-27T17:39:13Z</time>
      </trkpt>
      <trkpt lat="45.90913" lon="6.41906">
        <ele>1024.422119</ele>
        <time>2010-11-27T17:39:22Z</time>
      </trkpt>
      <trkpt lat="45.90906" lon="6.41907">
        <ele>1024.902832</ele>
        <time>2010-11-27T17:39:30Z</time>
      </trkpt>
      <trkpt lat="45.90901" lon="6.41908">
        <ele>1024.902832</ele>
        <time>2010-11-27T17:39:34Z</time>
      </trkpt>
      <trkpt lat="45.90887" lon="6.41909">
        <ele>1025.383301</ele>
        <time>2010-11-27T17:39:44Z</time>
      </trkpt>
      <trkpt lat="45.90873" lon="6.41913">
        <ele>1025.864014</ele>
        <time>2010-11-27T17:39:53Z</time>
      </trkpt>
      <trkpt lat="45.90862" lon="6.41917">
        <ele>1026.344727</ele>
        <time>2010-11-27T17:40:03Z</time>
      </trkpt>
    </trkseg>
  </trk>
</gpx>